<?xml version="1.0" encoding="UTF-8" standalone="no" ?>
<gpx xmlns="http://www.topografix.com/GPX/1/1" xmlns:xsi="http://www.w3.org/2001/XMLSchema-instance" xsi:schemaLocation="http://www.topografix.com/GPX/1/1 http://www.topografix.com/GPX/1/1/gpx.xsd" version="1.1" creator="VisuGPX - https://www.visugpx.com">
  <metadata>
    <name>Auxi le Château: 06 AVR 2022 13:59</name>
  </metadata>
  <trk>
    <name><![CDATA[Auxi le Château: 06 AVR 2022 13:59]]></name>
    <trkseg>
      <trkpt lat="50.22726" lon="2.11929">
        <ele>34.26</ele>
        <time>2022-04-06T11:59:13Z</time>
      </trkpt>
      <trkpt lat="50.22728" lon="2.11928">
        <ele>34.74</ele>
        <time>2022-04-06T11:59:24Z</time>
      </trkpt>
      <trkpt lat="50.22728" lon="2.11928">
        <ele>33.3</ele>
        <time>2022-04-06T11:59:41Z</time>
      </trkpt>
      <trkpt lat="50.22691" lon="2.11952">
        <ele>25.13</ele>
        <time>2022-04-06T12:00:03Z</time>
      </trkpt>
      <trkpt lat="50.22683" lon="2.11965">
        <ele>24.65</ele>
        <time>2022-04-06T12:00:23Z</time>
      </trkpt>
      <trkpt lat="50.22677" lon="2.11979">
        <ele>27.53</ele>
        <time>2022-04-06T12:00:47Z</time>
      </trkpt>
      <trkpt lat="50.22677" lon="2.11981">
        <ele>29.46</ele>
        <time>2022-04-06T12:01:08Z</time>
      </trkpt>
      <trkpt lat="50.22677" lon="2.11981">
        <ele>29.46</ele>
        <time>2022-04-06T12:01:26Z</time>
      </trkpt>
      <trkpt lat="50.22676" lon="2.11981">
        <ele>28.02</ele>
        <time>2022-04-06T12:01:51Z</time>
      </trkpt>
      <trkpt lat="50.22676" lon="2.1198">
        <ele>28.5</ele>
        <time>2022-04-06T12:02:14Z</time>
      </trkpt>
      <trkpt lat="50.22676" lon="2.1198">
        <ele>29.46</ele>
        <time>2022-04-06T12:02:43Z</time>
      </trkpt>
      <trkpt lat="50.22676" lon="2.1198">
        <ele>28.98</ele>
        <time>2022-04-06T12:03:04Z</time>
      </trkpt>
      <trkpt lat="50.22675" lon="2.11981">
        <ele>29.46</ele>
        <time>2022-04-06T12:03:31Z</time>
      </trkpt>
      <trkpt lat="50.22675" lon="2.11982">
        <ele>29.94</ele>
        <time>2022-04-06T12:03:58Z</time>
      </trkpt>
      <trkpt lat="50.22675" lon="2.11983">
        <ele>30.42</ele>
        <time>2022-04-06T12:04:27Z</time>
      </trkpt>
      <trkpt lat="50.22675" lon="2.11982">
        <ele>30.42</ele>
        <time>2022-04-06T12:04:52Z</time>
      </trkpt>
      <trkpt lat="50.22675" lon="2.11981">
        <ele>31.38</ele>
        <time>2022-04-06T12:05:12Z</time>
      </trkpt>
      <trkpt lat="50.22674" lon="2.11983">
        <ele>31.38</ele>
        <time>2022-04-06T12:05:27Z</time>
      </trkpt>
      <trkpt lat="50.22674" lon="2.12003">
        <ele>30.9</ele>
        <time>2022-04-06T12:05:40Z</time>
      </trkpt>
      <trkpt lat="50.22676" lon="2.12028">
        <ele>31.38</ele>
        <time>2022-04-06T12:05:54Z</time>
      </trkpt>
      <trkpt lat="50.2268" lon="2.1205">
        <ele>31.38</ele>
        <time>2022-04-06T12:06:06Z</time>
      </trkpt>
      <trkpt lat="50.22684" lon="2.12082">
        <ele>31.86</ele>
        <time>2022-04-06T12:06:21Z</time>
      </trkpt>
      <trkpt lat="50.22687" lon="2.12111">
        <ele>31.86</ele>
        <time>2022-04-06T12:06:35Z</time>
      </trkpt>
      <trkpt lat="50.22689" lon="2.12144">
        <ele>29.94</ele>
        <time>2022-04-06T12:06:51Z</time>
      </trkpt>
      <trkpt lat="50.22689" lon="2.1217">
        <ele>29.46</ele>
        <time>2022-04-06T12:07:04Z</time>
      </trkpt>
      <trkpt lat="50.22685" lon="2.12198">
        <ele>28.02</ele>
        <time>2022-04-06T12:07:18Z</time>
      </trkpt>
      <trkpt lat="50.22682" lon="2.12224">
        <ele>28.02</ele>
        <time>2022-04-06T12:07:31Z</time>
      </trkpt>
      <trkpt lat="50.22679" lon="2.12257">
        <ele>28.02</ele>
        <time>2022-04-06T12:07:47Z</time>
      </trkpt>
      <trkpt lat="50.22676" lon="2.12282">
        <ele>28.02</ele>
        <time>2022-04-06T12:08:01Z</time>
      </trkpt>
      <trkpt lat="50.22677" lon="2.12299">
        <ele>27.05</ele>
        <time>2022-04-06T12:08:11Z</time>
      </trkpt>
      <trkpt lat="50.22677" lon="2.12305">
        <ele>26.09</ele>
        <time>2022-04-06T12:08:15Z</time>
      </trkpt>
      <trkpt lat="50.22675" lon="2.12331">
        <ele>22.73</ele>
        <time>2022-04-06T12:08:29Z</time>
      </trkpt>
      <trkpt lat="50.22675" lon="2.12351">
        <ele>20.81</ele>
        <time>2022-04-06T12:08:39Z</time>
      </trkpt>
      <trkpt lat="50.2268" lon="2.12377">
        <ele>17.44</ele>
        <time>2022-04-06T12:08:53Z</time>
      </trkpt>
      <trkpt lat="50.22682" lon="2.12402">
        <ele>13.6</ele>
        <time>2022-04-06T12:09:06Z</time>
      </trkpt>
      <trkpt lat="50.22687" lon="2.12432">
        <ele>17.44</ele>
        <time>2022-04-06T12:09:19Z</time>
      </trkpt>
      <trkpt lat="50.22688" lon="2.1244">
        <ele>19.36</ele>
        <time>2022-04-06T12:09:22Z</time>
      </trkpt>
      <trkpt lat="50.22694" lon="2.12468">
        <ele>24.17</ele>
        <time>2022-04-06T12:09:36Z</time>
      </trkpt>
      <trkpt lat="50.22697" lon="2.1249">
        <ele>25.61</ele>
        <time>2022-04-06T12:09:46Z</time>
      </trkpt>
      <trkpt lat="50.22696" lon="2.125">
        <ele>26.09</ele>
        <time>2022-04-06T12:09:51Z</time>
      </trkpt>
      <trkpt lat="50.227" lon="2.12527">
        <ele>29.46</ele>
        <time>2022-04-06T12:10:03Z</time>
      </trkpt>
      <trkpt lat="50.22704" lon="2.12553">
        <ele>30.42</ele>
        <time>2022-04-06T12:10:15Z</time>
      </trkpt>
      <trkpt lat="50.22707" lon="2.1258">
        <ele>29.46</ele>
        <time>2022-04-06T12:10:30Z</time>
      </trkpt>
      <trkpt lat="50.22708" lon="2.12602">
        <ele>26.57</ele>
        <time>2022-04-06T12:10:41Z</time>
      </trkpt>
      <trkpt lat="50.22709" lon="2.12625">
        <ele>25.61</ele>
        <time>2022-04-06T12:10:52Z</time>
      </trkpt>
      <trkpt lat="50.22711" lon="2.12649">
        <ele>25.61</ele>
        <time>2022-04-06T12:11:03Z</time>
      </trkpt>
      <trkpt lat="50.22714" lon="2.12668">
        <ele>26.09</ele>
        <time>2022-04-06T12:11:11Z</time>
      </trkpt>
      <trkpt lat="50.22715" lon="2.1269">
        <ele>26.09</ele>
        <time>2022-04-06T12:11:21Z</time>
      </trkpt>
      <trkpt lat="50.22715" lon="2.12714">
        <ele>27.05</ele>
        <time>2022-04-06T12:11:32Z</time>
      </trkpt>
      <trkpt lat="50.22714" lon="2.12718">
        <ele>26.57</ele>
        <time>2022-04-06T12:11:34Z</time>
      </trkpt>
      <trkpt lat="50.22711" lon="2.1272">
        <ele>26.57</ele>
        <time>2022-04-06T12:11:38Z</time>
      </trkpt>
      <trkpt lat="50.22699" lon="2.12721">
        <ele>28.02</ele>
        <time>2022-04-06T12:11:49Z</time>
      </trkpt>
      <trkpt lat="50.22683" lon="2.12701">
        <ele>27.05</ele>
        <time>2022-04-06T12:12:04Z</time>
      </trkpt>
      <trkpt lat="50.22664" lon="2.12686">
        <ele>26.57</ele>
        <time>2022-04-06T12:12:19Z</time>
      </trkpt>
      <trkpt lat="50.22641" lon="2.12662">
        <ele>26.57</ele>
        <time>2022-04-06T12:12:38Z</time>
      </trkpt>
      <trkpt lat="50.22621" lon="2.12641">
        <ele>26.57</ele>
        <time>2022-04-06T12:12:54Z</time>
      </trkpt>
      <trkpt lat="50.22603" lon="2.12623">
        <ele>24.65</ele>
        <time>2022-04-06T12:13:10Z</time>
      </trkpt>
      <trkpt lat="50.22596" lon="2.12615">
        <ele>25.61</ele>
        <time>2022-04-06T12:13:22Z</time>
      </trkpt>
      <trkpt lat="50.22594" lon="2.12615">
        <ele>27.05</ele>
        <time>2022-04-06T12:13:41Z</time>
      </trkpt>
      <trkpt lat="50.22593" lon="2.1261">
        <ele>28.02</ele>
        <time>2022-04-06T12:14:05Z</time>
      </trkpt>
      <trkpt lat="50.22593" lon="2.12587">
        <ele>27.53</ele>
        <time>2022-04-06T12:14:19Z</time>
      </trkpt>
      <trkpt lat="50.22593" lon="2.12583">
        <ele>27.53</ele>
        <time>2022-04-06T12:14:21Z</time>
      </trkpt>
      <trkpt lat="50.2259" lon="2.12558">
        <ele>26.57</ele>
        <time>2022-04-06T12:14:35Z</time>
      </trkpt>
      <trkpt lat="50.22585" lon="2.12539">
        <ele>24.65</ele>
        <time>2022-04-06T12:14:47Z</time>
      </trkpt>
      <trkpt lat="50.22584" lon="2.12519">
        <ele>25.13</ele>
        <time>2022-04-06T12:14:58Z</time>
      </trkpt>
      <trkpt lat="50.22595" lon="2.12499">
        <ele>25.13</ele>
        <time>2022-04-06T12:15:11Z</time>
      </trkpt>
      <trkpt lat="50.22607" lon="2.12487">
        <ele>24.17</ele>
        <time>2022-04-06T12:15:23Z</time>
      </trkpt>
      <trkpt lat="50.22624" lon="2.12486">
        <ele>23.69</ele>
        <time>2022-04-06T12:15:36Z</time>
      </trkpt>
      <trkpt lat="50.2263" lon="2.12487">
        <ele>24.17</ele>
        <time>2022-04-06T12:15:41Z</time>
      </trkpt>
      <trkpt lat="50.22636" lon="2.1249">
        <ele>23.21</ele>
        <time>2022-04-06T12:15:51Z</time>
      </trkpt>
      <trkpt lat="50.22643" lon="2.12493">
        <ele>23.21</ele>
        <time>2022-04-06T12:16:02Z</time>
      </trkpt>
      <trkpt lat="50.22657" lon="2.12494">
        <ele>23.21</ele>
        <time>2022-04-06T12:16:13Z</time>
      </trkpt>
      <trkpt lat="50.2267" lon="2.12496">
        <ele>25.61</ele>
        <time>2022-04-06T12:16:23Z</time>
      </trkpt>
      <trkpt lat="50.22674" lon="2.12496">
        <ele>28.98</ele>
        <time>2022-04-06T12:16:36Z</time>
      </trkpt>
      <trkpt lat="50.22677" lon="2.12495">
        <ele>29.46</ele>
        <time>2022-04-06T12:16:43Z</time>
      </trkpt>
      <trkpt lat="50.22688" lon="2.125">
        <ele>29.94</ele>
        <time>2022-04-06T12:16:53Z</time>
      </trkpt>
      <trkpt lat="50.22689" lon="2.12499">
        <ele>29.94</ele>
        <time>2022-04-06T12:16:55Z</time>
      </trkpt>
      <trkpt lat="50.2269" lon="2.12468">
        <ele>31.86</ele>
        <time>2022-04-06T12:17:10Z</time>
      </trkpt>
      <trkpt lat="50.22688" lon="2.1245">
        <ele>30.9</ele>
        <time>2022-04-06T12:17:19Z</time>
      </trkpt>
      <trkpt lat="50.22687" lon="2.12428">
        <ele>30.42</ele>
        <time>2022-04-06T12:17:31Z</time>
      </trkpt>
      <trkpt lat="50.22683" lon="2.12405">
        <ele>28.98</ele>
        <time>2022-04-06T12:17:41Z</time>
      </trkpt>
      <trkpt lat="50.22679" lon="2.1238">
        <ele>27.05</ele>
        <time>2022-04-06T12:17:53Z</time>
      </trkpt>
      <trkpt lat="50.22678" lon="2.1235">
        <ele>26.57</ele>
        <time>2022-04-06T12:18:06Z</time>
      </trkpt>
      <trkpt lat="50.22675" lon="2.1232">
        <ele>28.5</ele>
        <time>2022-04-06T12:18:19Z</time>
      </trkpt>
      <trkpt lat="50.22674" lon="2.12295">
        <ele>28.98</ele>
        <time>2022-04-06T12:18:31Z</time>
      </trkpt>
      <trkpt lat="50.22673" lon="2.12284">
        <ele>30.42</ele>
        <time>2022-04-06T12:18:36Z</time>
      </trkpt>
      <trkpt lat="50.22669" lon="2.12256">
        <ele>31.86</ele>
        <time>2022-04-06T12:18:48Z</time>
      </trkpt>
      <trkpt lat="50.22666" lon="2.12223">
        <ele>32.82</ele>
        <time>2022-04-06T12:19:02Z</time>
      </trkpt>
      <trkpt lat="50.22662" lon="2.12194">
        <ele>32.34</ele>
        <time>2022-04-06T12:19:15Z</time>
      </trkpt>
      <trkpt lat="50.2266" lon="2.12168">
        <ele>30.42</ele>
        <time>2022-04-06T12:19:27Z</time>
      </trkpt>
      <trkpt lat="50.22657" lon="2.12146">
        <ele>29.94</ele>
        <time>2022-04-06T12:19:38Z</time>
      </trkpt>
      <trkpt lat="50.22653" lon="2.12122">
        <ele>28.98</ele>
        <time>2022-04-06T12:19:49Z</time>
      </trkpt>
      <trkpt lat="50.2265" lon="2.12088">
        <ele>30.42</ele>
        <time>2022-04-06T12:20:03Z</time>
      </trkpt>
      <trkpt lat="50.22645" lon="2.12059">
        <ele>28.02</ele>
        <time>2022-04-06T12:20:16Z</time>
      </trkpt>
      <trkpt lat="50.22642" lon="2.12022">
        <ele>27.53</ele>
        <time>2022-04-06T12:20:31Z</time>
      </trkpt>
      <trkpt lat="50.22638" lon="2.11997">
        <ele>27.05</ele>
        <time>2022-04-06T12:20:44Z</time>
      </trkpt>
      <trkpt lat="50.22635" lon="2.11974">
        <ele>26.09</ele>
        <time>2022-04-06T12:20:56Z</time>
      </trkpt>
      <trkpt lat="50.22634" lon="2.11949">
        <ele>25.13</ele>
        <time>2022-04-06T12:21:07Z</time>
      </trkpt>
      <trkpt lat="50.22631" lon="2.11933">
        <ele>24.65</ele>
        <time>2022-04-06T12:21:14Z</time>
      </trkpt>
      <trkpt lat="50.22628" lon="2.11906">
        <ele>25.13</ele>
        <time>2022-04-06T12:21:26Z</time>
      </trkpt>
      <trkpt lat="50.22624" lon="2.11868">
        <ele>28.02</ele>
        <time>2022-04-06T12:21:42Z</time>
      </trkpt>
      <trkpt lat="50.22617" lon="2.11823">
        <ele>32.82</ele>
        <time>2022-04-06T12:22:01Z</time>
      </trkpt>
      <trkpt lat="50.22612" lon="2.11786">
        <ele>35.23</ele>
        <time>2022-04-06T12:22:18Z</time>
      </trkpt>
      <trkpt lat="50.22609" lon="2.11758">
        <ele>35.23</ele>
        <time>2022-04-06T12:22:32Z</time>
      </trkpt>
      <trkpt lat="50.22605" lon="2.11731">
        <ele>33.78</ele>
        <time>2022-04-06T12:22:46Z</time>
      </trkpt>
      <trkpt lat="50.22603" lon="2.11701">
        <ele>33.78</ele>
        <time>2022-04-06T12:23:00Z</time>
      </trkpt>
      <trkpt lat="50.22601" lon="2.11668">
        <ele>32.34</ele>
        <time>2022-04-06T12:23:16Z</time>
      </trkpt>
      <trkpt lat="50.22597" lon="2.1164">
        <ele>31.38</ele>
        <time>2022-04-06T12:23:29Z</time>
      </trkpt>
      <trkpt lat="50.22592" lon="2.11611">
        <ele>33.3</ele>
        <time>2022-04-06T12:23:43Z</time>
      </trkpt>
      <trkpt lat="50.22588" lon="2.11588">
        <ele>33.78</ele>
        <time>2022-04-06T12:23:53Z</time>
      </trkpt>
      <trkpt lat="50.22586" lon="2.11564">
        <ele>34.26</ele>
        <time>2022-04-06T12:24:05Z</time>
      </trkpt>
      <trkpt lat="50.22583" lon="2.11536">
        <ele>32.34</ele>
        <time>2022-04-06T12:24:18Z</time>
      </trkpt>
      <trkpt lat="50.2258" lon="2.11515">
        <ele>31.38</ele>
        <time>2022-04-06T12:24:28Z</time>
      </trkpt>
      <trkpt lat="50.22578" lon="2.11493">
        <ele>31.86</ele>
        <time>2022-04-06T12:24:40Z</time>
      </trkpt>
      <trkpt lat="50.22575" lon="2.11467">
        <ele>30.42</ele>
        <time>2022-04-06T12:24:51Z</time>
      </trkpt>
      <trkpt lat="50.22571" lon="2.11443">
        <ele>30.42</ele>
        <time>2022-04-06T12:25:02Z</time>
      </trkpt>
      <trkpt lat="50.22571" lon="2.11439">
        <ele>30.42</ele>
        <time>2022-04-06T12:25:04Z</time>
      </trkpt>
      <trkpt lat="50.22567" lon="2.1141">
        <ele>31.86</ele>
        <time>2022-04-06T12:25:17Z</time>
      </trkpt>
      <trkpt lat="50.22567" lon="2.11398">
        <ele>31.86</ele>
        <time>2022-04-06T12:25:23Z</time>
      </trkpt>
      <trkpt lat="50.22565" lon="2.1139">
        <ele>32.34</ele>
        <time>2022-04-06T12:25:27Z</time>
      </trkpt>
      <trkpt lat="50.22562" lon="2.11362">
        <ele>33.78</ele>
        <time>2022-04-06T12:25:39Z</time>
      </trkpt>
      <trkpt lat="50.22558" lon="2.11339">
        <ele>35.23</ele>
        <time>2022-04-06T12:25:49Z</time>
      </trkpt>
      <trkpt lat="50.22557" lon="2.11319">
        <ele>35.23</ele>
        <time>2022-04-06T12:26:01Z</time>
      </trkpt>
      <trkpt lat="50.22556" lon="2.11315">
        <ele>34.74</ele>
        <time>2022-04-06T12:26:03Z</time>
      </trkpt>
      <trkpt lat="50.22553" lon="2.11289">
        <ele>35.23</ele>
        <time>2022-04-06T12:26:16Z</time>
      </trkpt>
      <trkpt lat="50.22549" lon="2.11262">
        <ele>35.71</ele>
        <time>2022-04-06T12:26:27Z</time>
      </trkpt>
      <trkpt lat="50.22545" lon="2.11237">
        <ele>37.15</ele>
        <time>2022-04-06T12:26:39Z</time>
      </trkpt>
      <trkpt lat="50.22543" lon="2.11226">
        <ele>38.11</ele>
        <time>2022-04-06T12:26:44Z</time>
      </trkpt>
      <trkpt lat="50.22542" lon="2.11217">
        <ele>38.59</ele>
        <time>2022-04-06T12:26:48Z</time>
      </trkpt>
      <trkpt lat="50.22537" lon="2.11189">
        <ele>39.55</ele>
        <time>2022-04-06T12:27:01Z</time>
      </trkpt>
      <trkpt lat="50.22534" lon="2.11163">
        <ele>39.55</ele>
        <time>2022-04-06T12:27:13Z</time>
      </trkpt>
      <trkpt lat="50.22532" lon="2.11142">
        <ele>39.07</ele>
        <time>2022-04-06T12:27:23Z</time>
      </trkpt>
      <trkpt lat="50.22529" lon="2.11118">
        <ele>39.07</ele>
        <time>2022-04-06T12:27:35Z</time>
      </trkpt>
      <trkpt lat="50.22525" lon="2.11095">
        <ele>39.07</ele>
        <time>2022-04-06T12:27:46Z</time>
      </trkpt>
      <trkpt lat="50.22523" lon="2.11071">
        <ele>40.51</ele>
        <time>2022-04-06T12:27:57Z</time>
      </trkpt>
      <trkpt lat="50.22521" lon="2.11045">
        <ele>40.99</ele>
        <time>2022-04-06T12:28:09Z</time>
      </trkpt>
      <trkpt lat="50.22517" lon="2.1102">
        <ele>41.47</ele>
        <time>2022-04-06T12:28:21Z</time>
      </trkpt>
      <trkpt lat="50.22514" lon="2.10995">
        <ele>42.44</ele>
        <time>2022-04-06T12:28:32Z</time>
      </trkpt>
      <trkpt lat="50.22511" lon="2.10973">
        <ele>41.95</ele>
        <time>2022-04-06T12:28:43Z</time>
      </trkpt>
      <trkpt lat="50.22511" lon="2.10971">
        <ele>41.95</ele>
        <time>2022-04-06T12:28:44Z</time>
      </trkpt>
      <trkpt lat="50.22508" lon="2.10949">
        <ele>41.47</ele>
        <time>2022-04-06T12:28:54Z</time>
      </trkpt>
      <trkpt lat="50.22506" lon="2.10932">
        <ele>40.51</ele>
        <time>2022-04-06T12:29:02Z</time>
      </trkpt>
      <trkpt lat="50.22504" lon="2.10912">
        <ele>38.11</ele>
        <time>2022-04-06T12:29:14Z</time>
      </trkpt>
      <trkpt lat="50.22499" lon="2.10883">
        <ele>40.03</ele>
        <time>2022-04-06T12:29:26Z</time>
      </trkpt>
      <trkpt lat="50.22498" lon="2.10873">
        <ele>39.55</ele>
        <time>2022-04-06T12:29:30Z</time>
      </trkpt>
      <trkpt lat="50.22494" lon="2.10849">
        <ele>40.03</ele>
        <time>2022-04-06T12:29:41Z</time>
      </trkpt>
      <trkpt lat="50.22494" lon="2.10836">
        <ele>40.03</ele>
        <time>2022-04-06T12:29:47Z</time>
      </trkpt>
      <trkpt lat="50.2249" lon="2.10818">
        <ele>40.03</ele>
        <time>2022-04-06T12:29:56Z</time>
      </trkpt>
      <trkpt lat="50.22488" lon="2.10797">
        <ele>40.99</ele>
        <time>2022-04-06T12:30:07Z</time>
      </trkpt>
      <trkpt lat="50.22485" lon="2.10772">
        <ele>41.47</ele>
        <time>2022-04-06T12:30:19Z</time>
      </trkpt>
      <trkpt lat="50.22481" lon="2.10749">
        <ele>41.47</ele>
        <time>2022-04-06T12:30:30Z</time>
      </trkpt>
      <trkpt lat="50.22477" lon="2.10726">
        <ele>38.11</ele>
        <time>2022-04-06T12:30:43Z</time>
      </trkpt>
      <trkpt lat="50.22475" lon="2.10713">
        <ele>36.19</ele>
        <time>2022-04-06T12:30:50Z</time>
      </trkpt>
      <trkpt lat="50.22474" lon="2.10704">
        <ele>35.23</ele>
        <time>2022-04-06T12:30:54Z</time>
      </trkpt>
      <trkpt lat="50.22472" lon="2.10681">
        <ele>31.86</ele>
        <time>2022-04-06T12:31:07Z</time>
      </trkpt>
      <trkpt lat="50.22469" lon="2.10662">
        <ele>31.38</ele>
        <time>2022-04-06T12:31:17Z</time>
      </trkpt>
      <trkpt lat="50.22465" lon="2.10642">
        <ele>32.82</ele>
        <time>2022-04-06T12:31:27Z</time>
      </trkpt>
      <trkpt lat="50.2246" lon="2.10623">
        <ele>31.38</ele>
        <time>2022-04-06T12:31:38Z</time>
      </trkpt>
      <trkpt lat="50.22455" lon="2.10602">
        <ele>27.05</ele>
        <time>2022-04-06T12:31:49Z</time>
      </trkpt>
      <trkpt lat="50.22452" lon="2.10586">
        <ele>23.21</ele>
        <time>2022-04-06T12:31:58Z</time>
      </trkpt>
      <trkpt lat="50.22448" lon="2.10577">
        <ele>20.81</ele>
        <time>2022-04-06T12:32:03Z</time>
      </trkpt>
      <trkpt lat="50.22439" lon="2.10557">
        <ele>16.48</ele>
        <time>2022-04-06T12:32:14Z</time>
      </trkpt>
      <trkpt lat="50.2243" lon="2.10539">
        <ele>15.04</ele>
        <time>2022-04-06T12:32:25Z</time>
      </trkpt>
      <trkpt lat="50.22422" lon="2.1052">
        <ele>14.56</ele>
        <time>2022-04-06T12:32:35Z</time>
      </trkpt>
      <trkpt lat="50.22415" lon="2.10501">
        <ele>19.84</ele>
        <time>2022-04-06T12:32:46Z</time>
      </trkpt>
      <trkpt lat="50.2241" lon="2.10481">
        <ele>25.13</ele>
        <time>2022-04-06T12:32:56Z</time>
      </trkpt>
      <trkpt lat="50.22401" lon="2.10457">
        <ele>32.82</ele>
        <time>2022-04-06T12:33:07Z</time>
      </trkpt>
      <trkpt lat="50.22391" lon="2.10435">
        <ele>34.74</ele>
        <time>2022-04-06T12:33:20Z</time>
      </trkpt>
      <trkpt lat="50.2238" lon="2.10415">
        <ele>36.19</ele>
        <time>2022-04-06T12:33:32Z</time>
      </trkpt>
      <trkpt lat="50.22377" lon="2.10409">
        <ele>36.19</ele>
        <time>2022-04-06T12:33:36Z</time>
      </trkpt>
      <trkpt lat="50.22364" lon="2.10386">
        <ele>37.63</ele>
        <time>2022-04-06T12:33:49Z</time>
      </trkpt>
      <trkpt lat="50.22353" lon="2.10369">
        <ele>39.55</ele>
        <time>2022-04-06T12:34:00Z</time>
      </trkpt>
      <trkpt lat="50.22344" lon="2.10355">
        <ele>38.59</ele>
        <time>2022-04-06T12:34:10Z</time>
      </trkpt>
      <trkpt lat="50.22334" lon="2.10341">
        <ele>37.15</ele>
        <time>2022-04-06T12:34:21Z</time>
      </trkpt>
      <trkpt lat="50.22321" lon="2.10327">
        <ele>34.74</ele>
        <time>2022-04-06T12:34:36Z</time>
      </trkpt>
      <trkpt lat="50.22314" lon="2.1032">
        <ele>33.3</ele>
        <time>2022-04-06T12:34:45Z</time>
      </trkpt>
      <trkpt lat="50.22306" lon="2.10309">
        <ele>33.78</ele>
        <time>2022-04-06T12:34:55Z</time>
      </trkpt>
      <trkpt lat="50.22296" lon="2.10297">
        <ele>33.78</ele>
        <time>2022-04-06T12:35:06Z</time>
      </trkpt>
      <trkpt lat="50.22282" lon="2.10283">
        <ele>32.34</ele>
        <time>2022-04-06T12:35:17Z</time>
      </trkpt>
      <trkpt lat="50.22266" lon="2.10267">
        <ele>27.53</ele>
        <time>2022-04-06T12:35:30Z</time>
      </trkpt>
      <trkpt lat="50.22252" lon="2.10254">
        <ele>22.25</ele>
        <time>2022-04-06T12:35:43Z</time>
      </trkpt>
      <trkpt lat="50.22242" lon="2.10244">
        <ele>19.84</ele>
        <time>2022-04-06T12:35:52Z</time>
      </trkpt>
      <trkpt lat="50.22227" lon="2.10231">
        <ele>15.52</ele>
        <time>2022-04-06T12:36:05Z</time>
      </trkpt>
      <trkpt lat="50.22215" lon="2.10223">
        <ele>12.15</ele>
        <time>2022-04-06T12:36:17Z</time>
      </trkpt>
      <trkpt lat="50.22213" lon="2.10222">
        <ele>12.15</ele>
        <time>2022-04-06T12:36:19Z</time>
      </trkpt>
      <trkpt lat="50.22199" lon="2.1021">
        <ele>12.15</ele>
        <time>2022-04-06T12:36:31Z</time>
      </trkpt>
      <trkpt lat="50.22184" lon="2.10205">
        <ele>14.56</ele>
        <time>2022-04-06T12:36:41Z</time>
      </trkpt>
      <trkpt lat="50.22169" lon="2.10198">
        <ele>21.77</ele>
        <time>2022-04-06T12:36:51Z</time>
      </trkpt>
      <trkpt lat="50.22153" lon="2.10187">
        <ele>23.69</ele>
        <time>2022-04-06T12:37:02Z</time>
      </trkpt>
      <trkpt lat="50.2214" lon="2.10178">
        <ele>24.17</ele>
        <time>2022-04-06T12:37:13Z</time>
      </trkpt>
      <trkpt lat="50.22128" lon="2.1017">
        <ele>26.09</ele>
        <time>2022-04-06T12:37:24Z</time>
      </trkpt>
      <trkpt lat="50.22118" lon="2.10162">
        <ele>25.61</ele>
        <time>2022-04-06T12:37:34Z</time>
      </trkpt>
      <trkpt lat="50.22114" lon="2.10159">
        <ele>25.13</ele>
        <time>2022-04-06T12:37:37Z</time>
      </trkpt>
      <trkpt lat="50.22098" lon="2.10149">
        <ele>28.02</ele>
        <time>2022-04-06T12:37:49Z</time>
      </trkpt>
      <trkpt lat="50.22078" lon="2.10136">
        <ele>33.78</ele>
        <time>2022-04-06T12:38:01Z</time>
      </trkpt>
      <trkpt lat="50.22065" lon="2.10128">
        <ele>31.86</ele>
        <time>2022-04-06T12:38:13Z</time>
      </trkpt>
      <trkpt lat="50.22049" lon="2.10118">
        <ele>32.34</ele>
        <time>2022-04-06T12:38:26Z</time>
      </trkpt>
      <trkpt lat="50.22034" lon="2.1011">
        <ele>37.63</ele>
        <time>2022-04-06T12:38:36Z</time>
      </trkpt>
      <trkpt lat="50.22021" lon="2.10102">
        <ele>35.71</ele>
        <time>2022-04-06T12:38:47Z</time>
      </trkpt>
      <trkpt lat="50.22009" lon="2.10093">
        <ele>35.23</ele>
        <time>2022-04-06T12:38:58Z</time>
      </trkpt>
      <trkpt lat="50.22006" lon="2.10092">
        <ele>34.26</ele>
        <time>2022-04-06T12:39:01Z</time>
      </trkpt>
      <trkpt lat="50.21992" lon="2.10084">
        <ele>31.86</ele>
        <time>2022-04-06T12:39:12Z</time>
      </trkpt>
      <trkpt lat="50.21975" lon="2.10076">
        <ele>33.3</ele>
        <time>2022-04-06T12:39:24Z</time>
      </trkpt>
      <trkpt lat="50.21961" lon="2.10068">
        <ele>35.71</ele>
        <time>2022-04-06T12:39:35Z</time>
      </trkpt>
      <trkpt lat="50.21953" lon="2.10066">
        <ele>36.19</ele>
        <time>2022-04-06T12:39:40Z</time>
      </trkpt>
      <trkpt lat="50.21949" lon="2.10064">
        <ele>37.15</ele>
        <time>2022-04-06T12:39:43Z</time>
      </trkpt>
      <trkpt lat="50.21939" lon="2.10064">
        <ele>42.44</ele>
        <time>2022-04-06T12:39:53Z</time>
      </trkpt>
      <trkpt lat="50.21937" lon="2.10064">
        <ele>45.8</ele>
        <time>2022-04-06T12:40:08Z</time>
      </trkpt>
      <trkpt lat="50.21936" lon="2.10061">
        <ele>48.68</ele>
        <time>2022-04-06T12:40:30Z</time>
      </trkpt>
      <trkpt lat="50.21932" lon="2.10058">
        <ele>49.16</ele>
        <time>2022-04-06T12:40:41Z</time>
      </trkpt>
      <trkpt lat="50.21918" lon="2.10051">
        <ele>47.72</ele>
        <time>2022-04-06T12:40:50Z</time>
      </trkpt>
      <trkpt lat="50.21916" lon="2.1005">
        <ele>47.24</ele>
        <time>2022-04-06T12:40:52Z</time>
      </trkpt>
      <trkpt lat="50.21898" lon="2.10043">
        <ele>42.44</ele>
        <time>2022-04-06T12:41:05Z</time>
      </trkpt>
      <trkpt lat="50.21879" lon="2.10029">
        <ele>38.11</ele>
        <time>2022-04-06T12:41:18Z</time>
      </trkpt>
      <trkpt lat="50.21856" lon="2.10022">
        <ele>40.51</ele>
        <time>2022-04-06T12:41:31Z</time>
      </trkpt>
      <trkpt lat="50.21854" lon="2.10021">
        <ele>40.51</ele>
        <time>2022-04-06T12:41:32Z</time>
      </trkpt>
      <trkpt lat="50.21835" lon="2.10012">
        <ele>43.88</ele>
        <time>2022-04-06T12:41:43Z</time>
      </trkpt>
      <trkpt lat="50.2182" lon="2.10002">
        <ele>43.4</ele>
        <time>2022-04-06T12:41:55Z</time>
      </trkpt>
      <trkpt lat="50.21809" lon="2.09998">
        <ele>42.44</ele>
        <time>2022-04-06T12:42:04Z</time>
      </trkpt>
      <trkpt lat="50.2179" lon="2.09985">
        <ele>40.51</ele>
        <time>2022-04-06T12:42:18Z</time>
      </trkpt>
      <trkpt lat="50.21774" lon="2.09977">
        <ele>36.67</ele>
        <time>2022-04-06T12:42:30Z</time>
      </trkpt>
      <trkpt lat="50.21767" lon="2.09971">
        <ele>34.26</ele>
        <time>2022-04-06T12:42:36Z</time>
      </trkpt>
      <trkpt lat="50.2175" lon="2.09961">
        <ele>30.9</ele>
        <time>2022-04-06T12:42:49Z</time>
      </trkpt>
      <trkpt lat="50.21735" lon="2.09953">
        <ele>27.53</ele>
        <time>2022-04-06T12:42:59Z</time>
      </trkpt>
      <trkpt lat="50.21719" lon="2.09946">
        <ele>27.05</ele>
        <time>2022-04-06T12:43:10Z</time>
      </trkpt>
      <trkpt lat="50.21699" lon="2.09939">
        <ele>29.46</ele>
        <time>2022-04-06T12:43:22Z</time>
      </trkpt>
      <trkpt lat="50.21684" lon="2.09926">
        <ele>29.94</ele>
        <time>2022-04-06T12:43:33Z</time>
      </trkpt>
      <trkpt lat="50.2167" lon="2.09916">
        <ele>32.34</ele>
        <time>2022-04-06T12:43:44Z</time>
      </trkpt>
      <trkpt lat="50.21652" lon="2.09906">
        <ele>34.26</ele>
        <time>2022-04-06T12:43:57Z</time>
      </trkpt>
      <trkpt lat="50.21636" lon="2.09896">
        <ele>31.86</ele>
        <time>2022-04-06T12:44:08Z</time>
      </trkpt>
      <trkpt lat="50.21614" lon="2.09884">
        <ele>35.23</ele>
        <time>2022-04-06T12:44:20Z</time>
      </trkpt>
      <trkpt lat="50.21595" lon="2.09874">
        <ele>31.38</ele>
        <time>2022-04-06T12:44:33Z</time>
      </trkpt>
      <trkpt lat="50.21581" lon="2.09865">
        <ele>28.5</ele>
        <time>2022-04-06T12:44:44Z</time>
      </trkpt>
      <trkpt lat="50.21567" lon="2.09856">
        <ele>22.73</ele>
        <time>2022-04-06T12:44:55Z</time>
      </trkpt>
      <trkpt lat="50.21553" lon="2.09846">
        <ele>16.96</ele>
        <time>2022-04-06T12:45:05Z</time>
      </trkpt>
      <trkpt lat="50.21541" lon="2.09841">
        <ele>13.12</ele>
        <time>2022-04-06T12:45:15Z</time>
      </trkpt>
      <trkpt lat="50.21524" lon="2.0983">
        <ele>7.35</ele>
        <time>2022-04-06T12:45:26Z</time>
      </trkpt>
      <trkpt lat="50.21508" lon="2.09822">
        <ele>3.02</ele>
        <time>2022-04-06T12:45:39Z</time>
      </trkpt>
      <trkpt lat="50.21492" lon="2.09815">
        <ele>0.62</ele>
        <time>2022-04-06T12:45:51Z</time>
      </trkpt>
      <trkpt lat="50.2148" lon="2.09808">
        <ele>-0.34</ele>
        <time>2022-04-06T12:46:00Z</time>
      </trkpt>
      <trkpt lat="50.21466" lon="2.09796">
        <ele>3.5</ele>
        <time>2022-04-06T12:46:12Z</time>
      </trkpt>
      <trkpt lat="50.21446" lon="2.09787">
        <ele>12.15</ele>
        <time>2022-04-06T12:46:24Z</time>
      </trkpt>
      <trkpt lat="50.2143" lon="2.09777">
        <ele>17.92</ele>
        <time>2022-04-06T12:46:37Z</time>
      </trkpt>
      <trkpt lat="50.21414" lon="2.09768">
        <ele>20.32</ele>
        <time>2022-04-06T12:46:49Z</time>
      </trkpt>
      <trkpt lat="50.21399" lon="2.0976">
        <ele>21.29</ele>
        <time>2022-04-06T12:47:01Z</time>
      </trkpt>
      <trkpt lat="50.21385" lon="2.09748">
        <ele>22.73</ele>
        <time>2022-04-06T12:47:13Z</time>
      </trkpt>
      <trkpt lat="50.21371" lon="2.09738">
        <ele>23.21</ele>
        <time>2022-04-06T12:47:25Z</time>
      </trkpt>
      <trkpt lat="50.21357" lon="2.09723">
        <ele>22.73</ele>
        <time>2022-04-06T12:47:37Z</time>
      </trkpt>
      <trkpt lat="50.21341" lon="2.09711">
        <ele>30.9</ele>
        <time>2022-04-06T12:47:49Z</time>
      </trkpt>
      <trkpt lat="50.21332" lon="2.09703">
        <ele>30.9</ele>
        <time>2022-04-06T12:47:58Z</time>
      </trkpt>
      <trkpt lat="50.21321" lon="2.0969">
        <ele>30.42</ele>
        <time>2022-04-06T12:48:09Z</time>
      </trkpt>
      <trkpt lat="50.21307" lon="2.09679">
        <ele>35.71</ele>
        <time>2022-04-06T12:48:20Z</time>
      </trkpt>
      <trkpt lat="50.21306" lon="2.09678">
        <ele>35.71</ele>
        <time>2022-04-06T12:48:21Z</time>
      </trkpt>
      <trkpt lat="50.21302" lon="2.09673">
        <ele>34.74</ele>
        <time>2022-04-06T12:48:26Z</time>
      </trkpt>
      <trkpt lat="50.21291" lon="2.0966">
        <ele>32.82</ele>
        <time>2022-04-06T12:48:37Z</time>
      </trkpt>
      <trkpt lat="50.21278" lon="2.09647">
        <ele>30.9</ele>
        <time>2022-04-06T12:48:48Z</time>
      </trkpt>
      <trkpt lat="50.21265" lon="2.0963">
        <ele>29.46</ele>
        <time>2022-04-06T12:49:00Z</time>
      </trkpt>
      <trkpt lat="50.21252" lon="2.09614">
        <ele>27.53</ele>
        <time>2022-04-06T12:49:13Z</time>
      </trkpt>
      <trkpt lat="50.21239" lon="2.09601">
        <ele>27.53</ele>
        <time>2022-04-06T12:49:25Z</time>
      </trkpt>
      <trkpt lat="50.21226" lon="2.09588">
        <ele>28.5</ele>
        <time>2022-04-06T12:49:35Z</time>
      </trkpt>
      <trkpt lat="50.21211" lon="2.09572">
        <ele>29.46</ele>
        <time>2022-04-06T12:49:49Z</time>
      </trkpt>
      <trkpt lat="50.21192" lon="2.09552">
        <ele>28.02</ele>
        <time>2022-04-06T12:50:05Z</time>
      </trkpt>
      <trkpt lat="50.2118" lon="2.09539">
        <ele>28.02</ele>
        <time>2022-04-06T12:50:16Z</time>
      </trkpt>
      <trkpt lat="50.21163" lon="2.09523">
        <ele>22.73</ele>
        <time>2022-04-06T12:50:32Z</time>
      </trkpt>
      <trkpt lat="50.21153" lon="2.09512">
        <ele>18.88</ele>
        <time>2022-04-06T12:50:43Z</time>
      </trkpt>
      <trkpt lat="50.2114" lon="2.09499">
        <ele>16</ele>
        <time>2022-04-06T12:50:55Z</time>
      </trkpt>
      <trkpt lat="50.21127" lon="2.0949">
        <ele>13.6</ele>
        <time>2022-04-06T12:51:06Z</time>
      </trkpt>
      <trkpt lat="50.21113" lon="2.09477">
        <ele>12.63</ele>
        <time>2022-04-06T12:51:18Z</time>
      </trkpt>
      <trkpt lat="50.21099" lon="2.09464">
        <ele>11.67</ele>
        <time>2022-04-06T12:51:30Z</time>
      </trkpt>
      <trkpt lat="50.21085" lon="2.09452">
        <ele>8.79</ele>
        <time>2022-04-06T12:51:42Z</time>
      </trkpt>
      <trkpt lat="50.21073" lon="2.09446">
        <ele>6.39</ele>
        <time>2022-04-06T12:51:52Z</time>
      </trkpt>
      <trkpt lat="50.21061" lon="2.0944">
        <ele>6.87</ele>
        <time>2022-04-06T12:52:02Z</time>
      </trkpt>
      <trkpt lat="50.21056" lon="2.09438">
        <ele>7.83</ele>
        <time>2022-04-06T12:52:05Z</time>
      </trkpt>
      <trkpt lat="50.2104" lon="2.09434">
        <ele>11.19</ele>
        <time>2022-04-06T12:52:16Z</time>
      </trkpt>
      <trkpt lat="50.21026" lon="2.0943">
        <ele>13.6</ele>
        <time>2022-04-06T12:52:27Z</time>
      </trkpt>
      <trkpt lat="50.21013" lon="2.09428">
        <ele>16</ele>
        <time>2022-04-06T12:52:37Z</time>
      </trkpt>
      <trkpt lat="50.20996" lon="2.09425">
        <ele>19.84</ele>
        <time>2022-04-06T12:52:49Z</time>
      </trkpt>
      <trkpt lat="50.20982" lon="2.0942">
        <ele>24.17</ele>
        <time>2022-04-06T12:52:59Z</time>
      </trkpt>
      <trkpt lat="50.20969" lon="2.09416">
        <ele>27.05</ele>
        <time>2022-04-06T12:53:10Z</time>
      </trkpt>
      <trkpt lat="50.20951" lon="2.09413">
        <ele>32.34</ele>
        <time>2022-04-06T12:53:23Z</time>
      </trkpt>
      <trkpt lat="50.20934" lon="2.09409">
        <ele>36.67</ele>
        <time>2022-04-06T12:53:35Z</time>
      </trkpt>
      <trkpt lat="50.20918" lon="2.09407">
        <ele>41.95</ele>
        <time>2022-04-06T12:53:46Z</time>
      </trkpt>
      <trkpt lat="50.20905" lon="2.09405">
        <ele>52.05</ele>
        <time>2022-04-06T12:53:55Z</time>
      </trkpt>
      <trkpt lat="50.20891" lon="2.09402">
        <ele>64.55</ele>
        <time>2022-04-06T12:54:07Z</time>
      </trkpt>
      <trkpt lat="50.20877" lon="2.09402">
        <ele>71.76</ele>
        <time>2022-04-06T12:54:19Z</time>
      </trkpt>
      <trkpt lat="50.20864" lon="2.094">
        <ele>78</ele>
        <time>2022-04-06T12:54:30Z</time>
      </trkpt>
      <trkpt lat="50.20862" lon="2.09399">
        <ele>79.45</ele>
        <time>2022-04-06T12:54:32Z</time>
      </trkpt>
      <trkpt lat="50.20859" lon="2.09399">
        <ele>80.41</ele>
        <time>2022-04-06T12:54:35Z</time>
      </trkpt>
      <trkpt lat="50.20848" lon="2.09396">
        <ele>83.77</ele>
        <time>2022-04-06T12:54:44Z</time>
      </trkpt>
      <trkpt lat="50.20846" lon="2.09397">
        <ele>84.25</ele>
        <time>2022-04-06T12:54:46Z</time>
      </trkpt>
      <trkpt lat="50.20831" lon="2.09394">
        <ele>87.14</ele>
        <time>2022-04-06T12:54:58Z</time>
      </trkpt>
      <trkpt lat="50.20817" lon="2.09395">
        <ele>90.98</ele>
        <time>2022-04-06T12:55:10Z</time>
      </trkpt>
      <trkpt lat="50.20813" lon="2.09395">
        <ele>91.46</ele>
        <time>2022-04-06T12:55:12Z</time>
      </trkpt>
      <trkpt lat="50.20797" lon="2.09392">
        <ele>96.27</ele>
        <time>2022-04-06T12:55:25Z</time>
      </trkpt>
      <trkpt lat="50.20781" lon="2.0939">
        <ele>99.63</ele>
        <time>2022-04-06T12:55:37Z</time>
      </trkpt>
      <trkpt lat="50.20766" lon="2.0939">
        <ele>103.48</ele>
        <time>2022-04-06T12:55:48Z</time>
      </trkpt>
      <trkpt lat="50.20759" lon="2.0939">
        <ele>103.48</ele>
        <time>2022-04-06T12:55:53Z</time>
      </trkpt>
      <trkpt lat="50.20742" lon="2.0939">
        <ele>103.48</ele>
        <time>2022-04-06T12:56:05Z</time>
      </trkpt>
      <trkpt lat="50.20726" lon="2.09393">
        <ele>104.92</ele>
        <time>2022-04-06T12:56:18Z</time>
      </trkpt>
      <trkpt lat="50.20721" lon="2.09393">
        <ele>105.4</ele>
        <time>2022-04-06T12:56:22Z</time>
      </trkpt>
      <trkpt lat="50.20704" lon="2.09398">
        <ele>102.52</ele>
        <time>2022-04-06T12:56:32Z</time>
      </trkpt>
      <trkpt lat="50.20687" lon="2.09398">
        <ele>97.23</ele>
        <time>2022-04-06T12:56:41Z</time>
      </trkpt>
      <trkpt lat="50.20674" lon="2.09401">
        <ele>93.39</ele>
        <time>2022-04-06T12:56:51Z</time>
      </trkpt>
      <trkpt lat="50.20662" lon="2.09401">
        <ele>87.62</ele>
        <time>2022-04-06T12:57:03Z</time>
      </trkpt>
      <trkpt lat="50.20656" lon="2.09403">
        <ele>84.73</ele>
        <time>2022-04-06T12:57:07Z</time>
      </trkpt>
      <trkpt lat="50.2065" lon="2.09407">
        <ele>82.81</ele>
        <time>2022-04-06T12:57:10Z</time>
      </trkpt>
      <trkpt lat="50.20634" lon="2.09411">
        <ele>77.52</ele>
        <time>2022-04-06T12:57:21Z</time>
      </trkpt>
      <trkpt lat="50.20624" lon="2.09412">
        <ele>74.64</ele>
        <time>2022-04-06T12:57:27Z</time>
      </trkpt>
      <trkpt lat="50.20612" lon="2.09414">
        <ele>65.03</ele>
        <time>2022-04-06T12:57:37Z</time>
      </trkpt>
      <trkpt lat="50.20598" lon="2.09419">
        <ele>60.7</ele>
        <time>2022-04-06T12:57:48Z</time>
      </trkpt>
      <trkpt lat="50.2059" lon="2.09421">
        <ele>60.7</ele>
        <time>2022-04-06T12:57:55Z</time>
      </trkpt>
      <trkpt lat="50.20584" lon="2.09423">
        <ele>60.7</ele>
        <time>2022-04-06T12:57:59Z</time>
      </trkpt>
      <trkpt lat="50.20568" lon="2.09423">
        <ele>60.22</ele>
        <time>2022-04-06T12:58:12Z</time>
      </trkpt>
      <trkpt lat="50.20558" lon="2.09428">
        <ele>60.7</ele>
        <time>2022-04-06T12:58:20Z</time>
      </trkpt>
      <trkpt lat="50.20545" lon="2.09433">
        <ele>62.62</ele>
        <time>2022-04-06T12:58:30Z</time>
      </trkpt>
      <trkpt lat="50.20533" lon="2.09438">
        <ele>63.1</ele>
        <time>2022-04-06T12:58:41Z</time>
      </trkpt>
      <trkpt lat="50.20532" lon="2.09438">
        <ele>63.1</ele>
        <time>2022-04-06T12:58:42Z</time>
      </trkpt>
      <trkpt lat="50.20518" lon="2.09445">
        <ele>69.83</ele>
        <time>2022-04-06T12:58:50Z</time>
      </trkpt>
      <trkpt lat="50.20512" lon="2.09446">
        <ele>71.76</ele>
        <time>2022-04-06T12:58:54Z</time>
      </trkpt>
      <trkpt lat="50.20497" lon="2.09449">
        <ele>72.72</ele>
        <time>2022-04-06T12:59:06Z</time>
      </trkpt>
      <trkpt lat="50.20489" lon="2.09452">
        <ele>72.72</ele>
        <time>2022-04-06T12:59:13Z</time>
      </trkpt>
      <trkpt lat="50.20481" lon="2.09453">
        <ele>72.72</ele>
        <time>2022-04-06T12:59:20Z</time>
      </trkpt>
      <trkpt lat="50.20476" lon="2.09455">
        <ele>72.72</ele>
        <time>2022-04-06T12:59:24Z</time>
      </trkpt>
      <trkpt lat="50.20464" lon="2.09458">
        <ele>73.68</ele>
        <time>2022-04-06T12:59:34Z</time>
      </trkpt>
      <trkpt lat="50.20461" lon="2.09458">
        <ele>73.68</ele>
        <time>2022-04-06T12:59:36Z</time>
      </trkpt>
      <trkpt lat="50.20446" lon="2.09461">
        <ele>71.27</ele>
        <time>2022-04-06T12:59:48Z</time>
      </trkpt>
      <trkpt lat="50.20435" lon="2.09465">
        <ele>68.87</ele>
        <time>2022-04-06T12:59:58Z</time>
      </trkpt>
      <trkpt lat="50.20425" lon="2.09468">
        <ele>65.51</ele>
        <time>2022-04-06T13:00:08Z</time>
      </trkpt>
      <trkpt lat="50.20411" lon="2.0947">
        <ele>65.99</ele>
        <time>2022-04-06T13:00:18Z</time>
      </trkpt>
      <trkpt lat="50.20401" lon="2.09472">
        <ele>67.43</ele>
        <time>2022-04-06T13:00:27Z</time>
      </trkpt>
      <trkpt lat="50.20388" lon="2.09476">
        <ele>71.27</ele>
        <time>2022-04-06T13:00:36Z</time>
      </trkpt>
      <trkpt lat="50.20377" lon="2.09481">
        <ele>67.43</ele>
        <time>2022-04-06T13:00:45Z</time>
      </trkpt>
      <trkpt lat="50.20375" lon="2.09481">
        <ele>65.99</ele>
        <time>2022-04-06T13:00:47Z</time>
      </trkpt>
      <trkpt lat="50.20362" lon="2.09484">
        <ele>62.14</ele>
        <time>2022-04-06T13:00:58Z</time>
      </trkpt>
      <trkpt lat="50.20351" lon="2.09483">
        <ele>58.3</ele>
        <time>2022-04-06T13:01:07Z</time>
      </trkpt>
      <trkpt lat="50.20349" lon="2.09482">
        <ele>57.82</ele>
        <time>2022-04-06T13:01:08Z</time>
      </trkpt>
      <trkpt lat="50.20331" lon="2.09481">
        <ele>61.66</ele>
        <time>2022-04-06T13:01:20Z</time>
      </trkpt>
      <trkpt lat="50.20326" lon="2.0948">
        <ele>62.14</ele>
        <time>2022-04-06T13:01:25Z</time>
      </trkpt>
      <trkpt lat="50.20312" lon="2.09479">
        <ele>65.51</ele>
        <time>2022-04-06T13:01:36Z</time>
      </trkpt>
      <trkpt lat="50.20293" lon="2.09479">
        <ele>70.79</ele>
        <time>2022-04-06T13:01:49Z</time>
      </trkpt>
      <trkpt lat="50.2029" lon="2.09479">
        <ele>71.27</ele>
        <time>2022-04-06T13:01:51Z</time>
      </trkpt>
      <trkpt lat="50.20287" lon="2.09477">
        <ele>72.72</ele>
        <time>2022-04-06T13:01:54Z</time>
      </trkpt>
      <trkpt lat="50.20282" lon="2.09477">
        <ele>73.68</ele>
        <time>2022-04-06T13:01:57Z</time>
      </trkpt>
      <trkpt lat="50.20267" lon="2.09476">
        <ele>76.56</ele>
        <time>2022-04-06T13:02:09Z</time>
      </trkpt>
      <trkpt lat="50.20256" lon="2.09477">
        <ele>78</ele>
        <time>2022-04-06T13:02:18Z</time>
      </trkpt>
      <trkpt lat="50.20249" lon="2.09477">
        <ele>78.48</ele>
        <time>2022-04-06T13:02:24Z</time>
      </trkpt>
      <trkpt lat="50.20237" lon="2.09475">
        <ele>78.97</ele>
        <time>2022-04-06T13:02:33Z</time>
      </trkpt>
      <trkpt lat="50.2023" lon="2.09474">
        <ele>78.48</ele>
        <time>2022-04-06T13:02:39Z</time>
      </trkpt>
      <trkpt lat="50.20216" lon="2.0947">
        <ele>75.6</ele>
        <time>2022-04-06T13:02:50Z</time>
      </trkpt>
      <trkpt lat="50.20207" lon="2.09469">
        <ele>74.64</ele>
        <time>2022-04-06T13:02:59Z</time>
      </trkpt>
      <trkpt lat="50.20195" lon="2.09469">
        <ele>72.24</ele>
        <time>2022-04-06T13:03:09Z</time>
      </trkpt>
      <trkpt lat="50.20182" lon="2.09469">
        <ele>70.31</ele>
        <time>2022-04-06T13:03:19Z</time>
      </trkpt>
      <trkpt lat="50.20181" lon="2.0947">
        <ele>69.83</ele>
        <time>2022-04-06T13:03:20Z</time>
      </trkpt>
      <trkpt lat="50.20168" lon="2.09468">
        <ele>67.43</ele>
        <time>2022-04-06T13:03:31Z</time>
      </trkpt>
      <trkpt lat="50.20157" lon="2.09465">
        <ele>67.91</ele>
        <time>2022-04-06T13:03:39Z</time>
      </trkpt>
      <trkpt lat="50.2014" lon="2.09462">
        <ele>72.72</ele>
        <time>2022-04-06T13:03:50Z</time>
      </trkpt>
      <trkpt lat="50.20123" lon="2.09463">
        <ele>75.12</ele>
        <time>2022-04-06T13:04:03Z</time>
      </trkpt>
      <trkpt lat="50.20111" lon="2.09459">
        <ele>77.52</ele>
        <time>2022-04-06T13:04:14Z</time>
      </trkpt>
      <trkpt lat="50.20099" lon="2.09457">
        <ele>79.93</ele>
        <time>2022-04-06T13:04:24Z</time>
      </trkpt>
      <trkpt lat="50.20093" lon="2.09457">
        <ele>80.89</ele>
        <time>2022-04-06T13:04:29Z</time>
      </trkpt>
      <trkpt lat="50.20077" lon="2.09452">
        <ele>81.85</ele>
        <time>2022-04-06T13:04:42Z</time>
      </trkpt>
      <trkpt lat="50.20067" lon="2.09451">
        <ele>81.85</ele>
        <time>2022-04-06T13:04:50Z</time>
      </trkpt>
      <trkpt lat="50.20049" lon="2.09449">
        <ele>79.45</ele>
        <time>2022-04-06T13:05:03Z</time>
      </trkpt>
      <trkpt lat="50.20033" lon="2.09448">
        <ele>77.04</ele>
        <time>2022-04-06T13:05:14Z</time>
      </trkpt>
      <trkpt lat="50.20023" lon="2.09449">
        <ele>75.12</ele>
        <time>2022-04-06T13:05:22Z</time>
      </trkpt>
      <trkpt lat="50.20015" lon="2.09447">
        <ele>74.64</ele>
        <time>2022-04-06T13:05:28Z</time>
      </trkpt>
      <trkpt lat="50.20006" lon="2.09445">
        <ele>72.72</ele>
        <time>2022-04-06T13:05:35Z</time>
      </trkpt>
      <trkpt lat="50.19992" lon="2.09442">
        <ele>67.91</ele>
        <time>2022-04-06T13:05:46Z</time>
      </trkpt>
      <trkpt lat="50.1998" lon="2.09438">
        <ele>59.74</ele>
        <time>2022-04-06T13:05:57Z</time>
      </trkpt>
      <trkpt lat="50.19971" lon="2.09437">
        <ele>55.41</ele>
        <time>2022-04-06T13:06:05Z</time>
      </trkpt>
      <trkpt lat="50.19967" lon="2.09436">
        <ele>52.53</ele>
        <time>2022-04-06T13:06:08Z</time>
      </trkpt>
      <trkpt lat="50.19951" lon="2.0943">
        <ele>35.71</ele>
        <time>2022-04-06T13:06:21Z</time>
      </trkpt>
      <trkpt lat="50.1994" lon="2.09425">
        <ele>22.25</ele>
        <time>2022-04-06T13:06:32Z</time>
      </trkpt>
      <trkpt lat="50.1993" lon="2.09419">
        <ele>9.75</ele>
        <time>2022-04-06T13:06:43Z</time>
      </trkpt>
      <trkpt lat="50.19922" lon="2.09415">
        <ele>-2.75</ele>
        <time>2022-04-06T13:06:50Z</time>
      </trkpt>
      <trkpt lat="50.19905" lon="2.09403">
        <ele>-24.86</ele>
        <time>2022-04-06T13:07:02Z</time>
      </trkpt>
      <trkpt lat="50.19891" lon="2.09396">
        <ele>-26.3</ele>
        <time>2022-04-06T13:07:12Z</time>
      </trkpt>
      <trkpt lat="50.19878" lon="2.09392">
        <ele>-25.34</ele>
        <time>2022-04-06T13:07:23Z</time>
      </trkpt>
      <trkpt lat="50.19863" lon="2.09383">
        <ele>-23.9</ele>
        <time>2022-04-06T13:07:35Z</time>
      </trkpt>
      <trkpt lat="50.19851" lon="2.09374">
        <ele>-20.53</ele>
        <time>2022-04-06T13:07:47Z</time>
      </trkpt>
      <trkpt lat="50.19836" lon="2.09365">
        <ele>-21.01</ele>
        <time>2022-04-06T13:08:00Z</time>
      </trkpt>
      <trkpt lat="50.19828" lon="2.0936">
        <ele>-23.41</ele>
        <time>2022-04-06T13:08:09Z</time>
      </trkpt>
      <trkpt lat="50.19814" lon="2.09354">
        <ele>-27.26</ele>
        <time>2022-04-06T13:08:20Z</time>
      </trkpt>
      <trkpt lat="50.19799" lon="2.0935">
        <ele>-27.26</ele>
        <time>2022-04-06T13:08:32Z</time>
      </trkpt>
      <trkpt lat="50.19785" lon="2.09347">
        <ele>-7.07</ele>
        <time>2022-04-06T13:08:43Z</time>
      </trkpt>
      <trkpt lat="50.19778" lon="2.09346">
        <ele>31.38</ele>
        <time>2022-04-06T13:08:52Z</time>
      </trkpt>
      <trkpt lat="50.19777" lon="2.09345">
        <ele>36.19</ele>
        <time>2022-04-06T13:08:55Z</time>
      </trkpt>
      <trkpt lat="50.19774" lon="2.09341">
        <ele>58.78</ele>
        <time>2022-04-06T13:09:07Z</time>
      </trkpt>
      <trkpt lat="50.19773" lon="2.09341">
        <ele>66.47</ele>
        <time>2022-04-06T13:09:23Z</time>
      </trkpt>
      <trkpt lat="50.19772" lon="2.09341">
        <ele>77.04</ele>
        <time>2022-04-06T13:09:37Z</time>
      </trkpt>
      <trkpt lat="50.19772" lon="2.09341">
        <ele>80.89</ele>
        <time>2022-04-06T13:09:51Z</time>
      </trkpt>
      <trkpt lat="50.19771" lon="2.09343">
        <ele>84.73</ele>
        <time>2022-04-06T13:10:09Z</time>
      </trkpt>
      <trkpt lat="50.1977" lon="2.09342">
        <ele>86.18</ele>
        <time>2022-04-06T13:10:25Z</time>
      </trkpt>
      <trkpt lat="50.1977" lon="2.09342">
        <ele>87.14</ele>
        <time>2022-04-06T13:10:37Z</time>
      </trkpt>
      <trkpt lat="50.1977" lon="2.09341">
        <ele>87.14</ele>
        <time>2022-04-06T13:10:51Z</time>
      </trkpt>
      <trkpt lat="50.19769" lon="2.09341">
        <ele>88.58</ele>
        <time>2022-04-06T13:11:10Z</time>
      </trkpt>
      <trkpt lat="50.19768" lon="2.09343">
        <ele>91.46</ele>
        <time>2022-04-06T13:11:25Z</time>
      </trkpt>
      <trkpt lat="50.19768" lon="2.09342">
        <ele>91.46</ele>
        <time>2022-04-06T13:11:40Z</time>
      </trkpt>
      <trkpt lat="50.19768" lon="2.09341">
        <ele>91.46</ele>
        <time>2022-04-06T13:11:55Z</time>
      </trkpt>
      <trkpt lat="50.19768" lon="2.09341">
        <ele>88.58</ele>
        <time>2022-04-06T13:12:16Z</time>
      </trkpt>
      <trkpt lat="50.19769" lon="2.09341">
        <ele>87.14</ele>
        <time>2022-04-06T13:12:27Z</time>
      </trkpt>
      <trkpt lat="50.19769" lon="2.0934">
        <ele>87.62</ele>
        <time>2022-04-06T13:12:44Z</time>
      </trkpt>
      <trkpt lat="50.19769" lon="2.0934">
        <ele>87.62</ele>
        <time>2022-04-06T13:12:58Z</time>
      </trkpt>
      <trkpt lat="50.19768" lon="2.0934">
        <ele>87.62</ele>
        <time>2022-04-06T13:13:15Z</time>
      </trkpt>
      <trkpt lat="50.19768" lon="2.0934">
        <ele>87.62</ele>
        <time>2022-04-06T13:13:29Z</time>
      </trkpt>
      <trkpt lat="50.19769" lon="2.0934">
        <ele>86.18</ele>
        <time>2022-04-06T13:13:42Z</time>
      </trkpt>
      <trkpt lat="50.19768" lon="2.0934">
        <ele>86.18</ele>
        <time>2022-04-06T13:13:54Z</time>
      </trkpt>
      <trkpt lat="50.19768" lon="2.0934">
        <ele>85.21</ele>
        <time>2022-04-06T13:14:10Z</time>
      </trkpt>
      <trkpt lat="50.19767" lon="2.09339">
        <ele>84.25</ele>
        <time>2022-04-06T13:14:30Z</time>
      </trkpt>
      <trkpt lat="50.19767" lon="2.09339">
        <ele>83.77</ele>
        <time>2022-04-06T13:14:52Z</time>
      </trkpt>
      <trkpt lat="50.19767" lon="2.09339">
        <ele>82.81</ele>
        <time>2022-04-06T13:15:14Z</time>
      </trkpt>
      <trkpt lat="50.19767" lon="2.09339">
        <ele>82.81</ele>
        <time>2022-04-06T13:15:33Z</time>
      </trkpt>
      <trkpt lat="50.19767" lon="2.09339">
        <ele>82.81</ele>
        <time>2022-04-06T13:15:48Z</time>
      </trkpt>
      <trkpt lat="50.19766" lon="2.09339">
        <ele>83.77</ele>
        <time>2022-04-06T13:16:03Z</time>
      </trkpt>
      <trkpt lat="50.19766" lon="2.0934">
        <ele>83.77</ele>
        <time>2022-04-06T13:16:16Z</time>
      </trkpt>
      <trkpt lat="50.19766" lon="2.0934">
        <ele>84.25</ele>
        <time>2022-04-06T13:16:27Z</time>
      </trkpt>
      <trkpt lat="50.19764" lon="2.09335">
        <ele>83.29</ele>
        <time>2022-04-06T13:16:31Z</time>
      </trkpt>
      <trkpt lat="50.19766" lon="2.09313">
        <ele>83.77</ele>
        <time>2022-04-06T13:16:44Z</time>
      </trkpt>
      <trkpt lat="50.1977" lon="2.09284">
        <ele>84.25</ele>
        <time>2022-04-06T13:16:59Z</time>
      </trkpt>
      <trkpt lat="50.19773" lon="2.09256">
        <ele>84.25</ele>
        <time>2022-04-06T13:17:14Z</time>
      </trkpt>
      <trkpt lat="50.19774" lon="2.09236">
        <ele>82.33</ele>
        <time>2022-04-06T13:17:25Z</time>
      </trkpt>
      <trkpt lat="50.1977" lon="2.09223">
        <ele>80.89</ele>
        <time>2022-04-06T13:17:38Z</time>
      </trkpt>
      <trkpt lat="50.19772" lon="2.09226">
        <ele>80.41</ele>
        <time>2022-04-06T13:17:49Z</time>
      </trkpt>
      <trkpt lat="50.19778" lon="2.09226">
        <ele>78.48</ele>
        <time>2022-04-06T13:17:57Z</time>
      </trkpt>
      <trkpt lat="50.19782" lon="2.09222">
        <ele>78</ele>
        <time>2022-04-06T13:18:01Z</time>
      </trkpt>
      <trkpt lat="50.1979" lon="2.09196">
        <ele>76.56</ele>
        <time>2022-04-06T13:18:16Z</time>
      </trkpt>
      <trkpt lat="50.19791" lon="2.0917">
        <ele>76.08</ele>
        <time>2022-04-06T13:18:30Z</time>
      </trkpt>
      <trkpt lat="50.1978" lon="2.0915">
        <ele>75.6</ele>
        <time>2022-04-06T13:18:44Z</time>
      </trkpt>
      <trkpt lat="50.19768" lon="2.09136">
        <ele>74.64</ele>
        <time>2022-04-06T13:18:57Z</time>
      </trkpt>
      <trkpt lat="50.19757" lon="2.09123">
        <ele>74.16</ele>
        <time>2022-04-06T13:19:10Z</time>
      </trkpt>
      <trkpt lat="50.1975" lon="2.09115">
        <ele>72.72</ele>
        <time>2022-04-06T13:19:22Z</time>
      </trkpt>
      <trkpt lat="50.19746" lon="2.09114">
        <ele>72.24</ele>
        <time>2022-04-06T13:19:26Z</time>
      </trkpt>
      <trkpt lat="50.19732" lon="2.09112">
        <ele>71.76</ele>
        <time>2022-04-06T13:19:40Z</time>
      </trkpt>
      <trkpt lat="50.19721" lon="2.09116">
        <ele>71.76</ele>
        <time>2022-04-06T13:19:52Z</time>
      </trkpt>
      <trkpt lat="50.19709" lon="2.09123">
        <ele>73.2</ele>
        <time>2022-04-06T13:20:04Z</time>
      </trkpt>
      <trkpt lat="50.19693" lon="2.09132">
        <ele>74.64</ele>
        <time>2022-04-06T13:20:18Z</time>
      </trkpt>
      <trkpt lat="50.19683" lon="2.09137">
        <ele>74.16</ele>
        <time>2022-04-06T13:20:28Z</time>
      </trkpt>
      <trkpt lat="50.19666" lon="2.09146">
        <ele>71.76</ele>
        <time>2022-04-06T13:20:42Z</time>
      </trkpt>
      <trkpt lat="50.19655" lon="2.09151">
        <ele>69.35</ele>
        <time>2022-04-06T13:20:52Z</time>
      </trkpt>
      <trkpt lat="50.19639" lon="2.09159">
        <ele>70.79</ele>
        <time>2022-04-06T13:21:04Z</time>
      </trkpt>
      <trkpt lat="50.19623" lon="2.09167">
        <ele>71.76</ele>
        <time>2022-04-06T13:21:17Z</time>
      </trkpt>
      <trkpt lat="50.19605" lon="2.09174">
        <ele>71.27</ele>
        <time>2022-04-06T13:21:30Z</time>
      </trkpt>
      <trkpt lat="50.19585" lon="2.09179">
        <ele>69.35</ele>
        <time>2022-04-06T13:21:45Z</time>
      </trkpt>
      <trkpt lat="50.19571" lon="2.09182">
        <ele>70.79</ele>
        <time>2022-04-06T13:21:56Z</time>
      </trkpt>
      <trkpt lat="50.19557" lon="2.09193">
        <ele>72.72</ele>
        <time>2022-04-06T13:22:11Z</time>
      </trkpt>
      <trkpt lat="50.19553" lon="2.09198">
        <ele>73.2</ele>
        <time>2022-04-06T13:22:15Z</time>
      </trkpt>
      <trkpt lat="50.19541" lon="2.0921">
        <ele>72.24</ele>
        <time>2022-04-06T13:22:27Z</time>
      </trkpt>
      <trkpt lat="50.1953" lon="2.09219">
        <ele>71.27</ele>
        <time>2022-04-06T13:22:37Z</time>
      </trkpt>
      <trkpt lat="50.19516" lon="2.09232">
        <ele>72.72</ele>
        <time>2022-04-06T13:22:48Z</time>
      </trkpt>
      <trkpt lat="50.19503" lon="2.09243">
        <ele>72.72</ele>
        <time>2022-04-06T13:22:59Z</time>
      </trkpt>
      <trkpt lat="50.1949" lon="2.09256">
        <ele>71.76</ele>
        <time>2022-04-06T13:23:11Z</time>
      </trkpt>
      <trkpt lat="50.19475" lon="2.0927">
        <ele>72.24</ele>
        <time>2022-04-06T13:23:24Z</time>
      </trkpt>
      <trkpt lat="50.19462" lon="2.09281">
        <ele>70.79</ele>
        <time>2022-04-06T13:23:34Z</time>
      </trkpt>
      <trkpt lat="50.19447" lon="2.09291">
        <ele>69.35</ele>
        <time>2022-04-06T13:23:46Z</time>
      </trkpt>
      <trkpt lat="50.19436" lon="2.09298">
        <ele>66.47</ele>
        <time>2022-04-06T13:23:58Z</time>
      </trkpt>
      <trkpt lat="50.19425" lon="2.09302">
        <ele>64.55</ele>
        <time>2022-04-06T13:24:08Z</time>
      </trkpt>
      <trkpt lat="50.19411" lon="2.09305">
        <ele>63.1</ele>
        <time>2022-04-06T13:24:19Z</time>
      </trkpt>
      <trkpt lat="50.19392" lon="2.09303">
        <ele>64.55</ele>
        <time>2022-04-06T13:24:30Z</time>
      </trkpt>
      <trkpt lat="50.19375" lon="2.09304">
        <ele>65.51</ele>
        <time>2022-04-06T13:24:42Z</time>
      </trkpt>
      <trkpt lat="50.19355" lon="2.09305">
        <ele>67.91</ele>
        <time>2022-04-06T13:24:54Z</time>
      </trkpt>
      <trkpt lat="50.19347" lon="2.09306">
        <ele>69.83</ele>
        <time>2022-04-06T13:25:00Z</time>
      </trkpt>
      <trkpt lat="50.19331" lon="2.09305">
        <ele>68.87</ele>
        <time>2022-04-06T13:25:13Z</time>
      </trkpt>
      <trkpt lat="50.19318" lon="2.09303">
        <ele>68.39</ele>
        <time>2022-04-06T13:25:23Z</time>
      </trkpt>
      <trkpt lat="50.19304" lon="2.093">
        <ele>68.39</ele>
        <time>2022-04-06T13:25:34Z</time>
      </trkpt>
      <trkpt lat="50.19286" lon="2.09297">
        <ele>67.43</ele>
        <time>2022-04-06T13:25:46Z</time>
      </trkpt>
      <trkpt lat="50.19269" lon="2.09293">
        <ele>65.99</ele>
        <time>2022-04-06T13:25:59Z</time>
      </trkpt>
      <trkpt lat="50.19258" lon="2.0929">
        <ele>65.03</ele>
        <time>2022-04-06T13:26:08Z</time>
      </trkpt>
      <trkpt lat="50.19245" lon="2.09286">
        <ele>63.1</ele>
        <time>2022-04-06T13:26:19Z</time>
      </trkpt>
      <trkpt lat="50.19226" lon="2.09281">
        <ele>63.1</ele>
        <time>2022-04-06T13:26:31Z</time>
      </trkpt>
      <trkpt lat="50.19206" lon="2.09273">
        <ele>64.07</ele>
        <time>2022-04-06T13:26:45Z</time>
      </trkpt>
      <trkpt lat="50.1919" lon="2.09262">
        <ele>64.55</ele>
        <time>2022-04-06T13:26:58Z</time>
      </trkpt>
      <trkpt lat="50.19184" lon="2.0926">
        <ele>63.58</ele>
        <time>2022-04-06T13:27:03Z</time>
      </trkpt>
      <trkpt lat="50.19169" lon="2.0925">
        <ele>63.1</ele>
        <time>2022-04-06T13:27:15Z</time>
      </trkpt>
      <trkpt lat="50.19167" lon="2.09248">
        <ele>63.1</ele>
        <time>2022-04-06T13:27:17Z</time>
      </trkpt>
      <trkpt lat="50.19149" lon="2.09239">
        <ele>64.55</ele>
        <time>2022-04-06T13:27:32Z</time>
      </trkpt>
      <trkpt lat="50.19128" lon="2.09232">
        <ele>71.27</ele>
        <time>2022-04-06T13:27:46Z</time>
      </trkpt>
      <trkpt lat="50.19116" lon="2.09233">
        <ele>73.68</ele>
        <time>2022-04-06T13:27:57Z</time>
      </trkpt>
      <trkpt lat="50.19104" lon="2.09237">
        <ele>75.6</ele>
        <time>2022-04-06T13:28:09Z</time>
      </trkpt>
      <trkpt lat="50.19092" lon="2.09243">
        <ele>77.04</ele>
        <time>2022-04-06T13:28:20Z</time>
      </trkpt>
      <trkpt lat="50.19078" lon="2.09251">
        <ele>79.45</ele>
        <time>2022-04-06T13:28:33Z</time>
      </trkpt>
      <trkpt lat="50.19066" lon="2.09259">
        <ele>80.41</ele>
        <time>2022-04-06T13:28:45Z</time>
      </trkpt>
      <trkpt lat="50.19063" lon="2.09262">
        <ele>80.89</ele>
        <time>2022-04-06T13:28:54Z</time>
      </trkpt>
      <trkpt lat="50.19055" lon="2.0927">
        <ele>80.89</ele>
        <time>2022-04-06T13:29:04Z</time>
      </trkpt>
      <trkpt lat="50.19048" lon="2.09278">
        <ele>80.41</ele>
        <time>2022-04-06T13:29:12Z</time>
      </trkpt>
      <trkpt lat="50.1904" lon="2.09291">
        <ele>78.97</ele>
        <time>2022-04-06T13:29:23Z</time>
      </trkpt>
      <trkpt lat="50.19032" lon="2.09306">
        <ele>78.97</ele>
        <time>2022-04-06T13:29:35Z</time>
      </trkpt>
      <trkpt lat="50.19028" lon="2.0932">
        <ele>81.37</ele>
        <time>2022-04-06T13:29:44Z</time>
      </trkpt>
      <trkpt lat="50.19026" lon="2.09326">
        <ele>82.81</ele>
        <time>2022-04-06T13:29:48Z</time>
      </trkpt>
      <trkpt lat="50.19021" lon="2.09339">
        <ele>81.85</ele>
        <time>2022-04-06T13:29:57Z</time>
      </trkpt>
      <trkpt lat="50.19022" lon="2.09353">
        <ele>80.41</ele>
        <time>2022-04-06T13:30:08Z</time>
      </trkpt>
      <trkpt lat="50.19021" lon="2.09359">
        <ele>82.33</ele>
        <time>2022-04-06T13:30:20Z</time>
      </trkpt>
      <trkpt lat="50.19019" lon="2.09358">
        <ele>83.77</ele>
        <time>2022-04-06T13:30:34Z</time>
      </trkpt>
      <trkpt lat="50.19018" lon="2.09356">
        <ele>84.73</ele>
        <time>2022-04-06T13:30:45Z</time>
      </trkpt>
      <trkpt lat="50.19017" lon="2.09354">
        <ele>86.18</ele>
        <time>2022-04-06T13:30:59Z</time>
      </trkpt>
      <trkpt lat="50.1902" lon="2.09346">
        <ele>85.69</ele>
        <time>2022-04-06T13:31:06Z</time>
      </trkpt>
      <trkpt lat="50.19036" lon="2.09342">
        <ele>91.94</ele>
        <time>2022-04-06T13:31:19Z</time>
      </trkpt>
      <trkpt lat="50.19049" lon="2.09341">
        <ele>93.39</ele>
        <time>2022-04-06T13:31:30Z</time>
      </trkpt>
      <trkpt lat="50.19065" lon="2.0934">
        <ele>95.31</ele>
        <time>2022-04-06T13:31:42Z</time>
      </trkpt>
      <trkpt lat="50.1907" lon="2.09341">
        <ele>94.35</ele>
        <time>2022-04-06T13:31:46Z</time>
      </trkpt>
      <trkpt lat="50.19085" lon="2.09344">
        <ele>92.9</ele>
        <time>2022-04-06T13:31:58Z</time>
      </trkpt>
      <trkpt lat="50.19099" lon="2.09349">
        <ele>91.94</ele>
        <time>2022-04-06T13:32:09Z</time>
      </trkpt>
      <trkpt lat="50.19115" lon="2.09351">
        <ele>91.94</ele>
        <time>2022-04-06T13:32:20Z</time>
      </trkpt>
      <trkpt lat="50.19129" lon="2.09352">
        <ele>91.46</ele>
        <time>2022-04-06T13:32:31Z</time>
      </trkpt>
      <trkpt lat="50.19138" lon="2.09351">
        <ele>89.54</ele>
        <time>2022-04-06T13:32:43Z</time>
      </trkpt>
      <trkpt lat="50.19154" lon="2.09351">
        <ele>88.58</ele>
        <time>2022-04-06T13:32:54Z</time>
      </trkpt>
      <trkpt lat="50.19163" lon="2.09353">
        <ele>90.5</ele>
        <time>2022-04-06T13:32:58Z</time>
      </trkpt>
      <trkpt lat="50.1918" lon="2.09357">
        <ele>91.46</ele>
        <time>2022-04-06T13:33:10Z</time>
      </trkpt>
      <trkpt lat="50.19196" lon="2.09358">
        <ele>91.94</ele>
        <time>2022-04-06T13:33:21Z</time>
      </trkpt>
      <trkpt lat="50.19205" lon="2.0936">
        <ele>92.9</ele>
        <time>2022-04-06T13:33:27Z</time>
      </trkpt>
      <trkpt lat="50.19209" lon="2.0936">
        <ele>93.39</ele>
        <time>2022-04-06T13:33:31Z</time>
      </trkpt>
      <trkpt lat="50.19226" lon="2.09361">
        <ele>94.35</ele>
        <time>2022-04-06T13:33:44Z</time>
      </trkpt>
      <trkpt lat="50.19229" lon="2.09361">
        <ele>94.83</ele>
        <time>2022-04-06T13:33:46Z</time>
      </trkpt>
      <trkpt lat="50.19247" lon="2.09364">
        <ele>99.63</ele>
        <time>2022-04-06T13:33:58Z</time>
      </trkpt>
      <trkpt lat="50.19262" lon="2.09363">
        <ele>102.52</ele>
        <time>2022-04-06T13:34:09Z</time>
      </trkpt>
      <trkpt lat="50.19279" lon="2.0936">
        <ele>102.52</ele>
        <time>2022-04-06T13:34:22Z</time>
      </trkpt>
      <trkpt lat="50.19293" lon="2.09362">
        <ele>101.08</ele>
        <time>2022-04-06T13:34:32Z</time>
      </trkpt>
      <trkpt lat="50.1931" lon="2.09363">
        <ele>99.15</ele>
        <time>2022-04-06T13:34:44Z</time>
      </trkpt>
      <trkpt lat="50.19331" lon="2.09364">
        <ele>95.79</ele>
        <time>2022-04-06T13:34:57Z</time>
      </trkpt>
      <trkpt lat="50.19343" lon="2.0936">
        <ele>95.79</ele>
        <time>2022-04-06T13:35:07Z</time>
      </trkpt>
      <trkpt lat="50.19344" lon="2.0936">
        <ele>95.79</ele>
        <time>2022-04-06T13:35:08Z</time>
      </trkpt>
      <trkpt lat="50.19358" lon="2.09356">
        <ele>96.75</ele>
        <time>2022-04-06T13:35:20Z</time>
      </trkpt>
      <trkpt lat="50.19375" lon="2.09349">
        <ele>97.71</ele>
        <time>2022-04-06T13:35:33Z</time>
      </trkpt>
      <trkpt lat="50.19388" lon="2.09345">
        <ele>96.27</ele>
        <time>2022-04-06T13:35:44Z</time>
      </trkpt>
      <trkpt lat="50.194" lon="2.09342">
        <ele>95.31</ele>
        <time>2022-04-06T13:35:55Z</time>
      </trkpt>
      <trkpt lat="50.19415" lon="2.09338">
        <ele>94.83</ele>
        <time>2022-04-06T13:36:06Z</time>
      </trkpt>
      <trkpt lat="50.19431" lon="2.09335">
        <ele>93.39</ele>
        <time>2022-04-06T13:36:17Z</time>
      </trkpt>
      <trkpt lat="50.19447" lon="2.09329">
        <ele>93.39</ele>
        <time>2022-04-06T13:36:29Z</time>
      </trkpt>
      <trkpt lat="50.19462" lon="2.09327">
        <ele>92.9</ele>
        <time>2022-04-06T13:36:40Z</time>
      </trkpt>
      <trkpt lat="50.19479" lon="2.09322">
        <ele>93.39</ele>
        <time>2022-04-06T13:36:53Z</time>
      </trkpt>
      <trkpt lat="50.19489" lon="2.09318">
        <ele>93.39</ele>
        <time>2022-04-06T13:37:02Z</time>
      </trkpt>
      <trkpt lat="50.19506" lon="2.09312">
        <ele>94.35</ele>
        <time>2022-04-06T13:37:13Z</time>
      </trkpt>
      <trkpt lat="50.19508" lon="2.09311">
        <ele>94.35</ele>
        <time>2022-04-06T13:37:15Z</time>
      </trkpt>
      <trkpt lat="50.19517" lon="2.09306">
        <ele>94.83</ele>
        <time>2022-04-06T13:37:22Z</time>
      </trkpt>
      <trkpt lat="50.19533" lon="2.09299">
        <ele>96.27</ele>
        <time>2022-04-06T13:37:35Z</time>
      </trkpt>
      <trkpt lat="50.19546" lon="2.09296">
        <ele>96.75</ele>
        <time>2022-04-06T13:37:46Z</time>
      </trkpt>
      <trkpt lat="50.19547" lon="2.09295">
        <ele>96.27</ele>
        <time>2022-04-06T13:37:47Z</time>
      </trkpt>
      <trkpt lat="50.19551" lon="2.09296">
        <ele>96.27</ele>
        <time>2022-04-06T13:37:50Z</time>
      </trkpt>
      <trkpt lat="50.19568" lon="2.09292">
        <ele>95.31</ele>
        <time>2022-04-06T13:38:03Z</time>
      </trkpt>
      <trkpt lat="50.1958" lon="2.09292">
        <ele>92.42</ele>
        <time>2022-04-06T13:38:15Z</time>
      </trkpt>
      <trkpt lat="50.19599" lon="2.09293">
        <ele>89.06</ele>
        <time>2022-04-06T13:38:27Z</time>
      </trkpt>
      <trkpt lat="50.19613" lon="2.0929">
        <ele>88.1</ele>
        <time>2022-04-06T13:38:37Z</time>
      </trkpt>
      <trkpt lat="50.1963" lon="2.09289">
        <ele>85.21</ele>
        <time>2022-04-06T13:38:51Z</time>
      </trkpt>
      <trkpt lat="50.19641" lon="2.09291">
        <ele>82.81</ele>
        <time>2022-04-06T13:39:02Z</time>
      </trkpt>
      <trkpt lat="50.19652" lon="2.09292">
        <ele>78.48</ele>
        <time>2022-04-06T13:39:12Z</time>
      </trkpt>
      <trkpt lat="50.19661" lon="2.09295">
        <ele>75.6</ele>
        <time>2022-04-06T13:39:24Z</time>
      </trkpt>
      <trkpt lat="50.19691" lon="2.09305">
        <ele>82.33</ele>
        <time>2022-04-06T13:39:36Z</time>
      </trkpt>
      <trkpt lat="50.197" lon="2.09309">
        <ele>82.81</ele>
        <time>2022-04-06T13:39:43Z</time>
      </trkpt>
      <trkpt lat="50.19718" lon="2.09316">
        <ele>84.73</ele>
        <time>2022-04-06T13:39:58Z</time>
      </trkpt>
      <trkpt lat="50.19733" lon="2.09322">
        <ele>85.21</ele>
        <time>2022-04-06T13:40:10Z</time>
      </trkpt>
      <trkpt lat="50.19742" lon="2.09327">
        <ele>84.25</ele>
        <time>2022-04-06T13:40:17Z</time>
      </trkpt>
      <trkpt lat="50.19751" lon="2.09334">
        <ele>83.29</ele>
        <time>2022-04-06T13:40:22Z</time>
      </trkpt>
      <trkpt lat="50.19757" lon="2.09359">
        <ele>82.33</ele>
        <time>2022-04-06T13:40:34Z</time>
      </trkpt>
      <trkpt lat="50.19772" lon="2.09375">
        <ele>85.69</ele>
        <time>2022-04-06T13:40:47Z</time>
      </trkpt>
      <trkpt lat="50.19787" lon="2.09385">
        <ele>88.1</ele>
        <time>2022-04-06T13:41:00Z</time>
      </trkpt>
      <trkpt lat="50.19804" lon="2.09401">
        <ele>86.18</ele>
        <time>2022-04-06T13:41:13Z</time>
      </trkpt>
      <trkpt lat="50.19807" lon="2.09402">
        <ele>85.21</ele>
        <time>2022-04-06T13:41:16Z</time>
      </trkpt>
      <trkpt lat="50.1982" lon="2.0942">
        <ele>81.85</ele>
        <time>2022-04-06T13:41:30Z</time>
      </trkpt>
      <trkpt lat="50.19831" lon="2.09431">
        <ele>80.41</ele>
        <time>2022-04-06T13:41:42Z</time>
      </trkpt>
      <trkpt lat="50.19842" lon="2.0944">
        <ele>81.85</ele>
        <time>2022-04-06T13:41:54Z</time>
      </trkpt>
      <trkpt lat="50.19855" lon="2.0945">
        <ele>84.73</ele>
        <time>2022-04-06T13:42:06Z</time>
      </trkpt>
      <trkpt lat="50.19861" lon="2.09454">
        <ele>86.66</ele>
        <time>2022-04-06T13:42:13Z</time>
      </trkpt>
      <trkpt lat="50.19878" lon="2.09465">
        <ele>89.54</ele>
        <time>2022-04-06T13:42:27Z</time>
      </trkpt>
      <trkpt lat="50.19892" lon="2.09474">
        <ele>91.46</ele>
        <time>2022-04-06T13:42:39Z</time>
      </trkpt>
      <trkpt lat="50.19903" lon="2.09484">
        <ele>91.46</ele>
        <time>2022-04-06T13:42:49Z</time>
      </trkpt>
      <trkpt lat="50.19916" lon="2.09494">
        <ele>91.94</ele>
        <time>2022-04-06T13:43:01Z</time>
      </trkpt>
      <trkpt lat="50.19922" lon="2.09499">
        <ele>92.42</ele>
        <time>2022-04-06T13:43:12Z</time>
      </trkpt>
      <trkpt lat="50.19927" lon="2.09504">
        <ele>92.9</ele>
        <time>2022-04-06T13:43:22Z</time>
      </trkpt>
      <trkpt lat="50.19941" lon="2.09513">
        <ele>94.83</ele>
        <time>2022-04-06T13:43:34Z</time>
      </trkpt>
      <trkpt lat="50.19955" lon="2.09523">
        <ele>94.83</ele>
        <time>2022-04-06T13:43:46Z</time>
      </trkpt>
      <trkpt lat="50.1997" lon="2.09537">
        <ele>94.35</ele>
        <time>2022-04-06T13:43:59Z</time>
      </trkpt>
      <trkpt lat="50.19986" lon="2.09553">
        <ele>93.39</ele>
        <time>2022-04-06T13:44:13Z</time>
      </trkpt>
      <trkpt lat="50.2" lon="2.09564">
        <ele>91.46</ele>
        <time>2022-04-06T13:44:26Z</time>
      </trkpt>
      <trkpt lat="50.20008" lon="2.09573">
        <ele>90.5</ele>
        <time>2022-04-06T13:44:39Z</time>
      </trkpt>
      <trkpt lat="50.20017" lon="2.0958">
        <ele>91.46</ele>
        <time>2022-04-06T13:44:51Z</time>
      </trkpt>
      <trkpt lat="50.20031" lon="2.09592">
        <ele>90.98</ele>
        <time>2022-04-06T13:45:03Z</time>
      </trkpt>
      <trkpt lat="50.20046" lon="2.09599">
        <ele>92.42</ele>
        <time>2022-04-06T13:45:16Z</time>
      </trkpt>
      <trkpt lat="50.20055" lon="2.09608">
        <ele>95.31</ele>
        <time>2022-04-06T13:45:25Z</time>
      </trkpt>
      <trkpt lat="50.2007" lon="2.09617">
        <ele>101.56</ele>
        <time>2022-04-06T13:45:37Z</time>
      </trkpt>
      <trkpt lat="50.20082" lon="2.09629">
        <ele>106.36</ele>
        <time>2022-04-06T13:45:48Z</time>
      </trkpt>
      <trkpt lat="50.20091" lon="2.09638">
        <ele>109.25</ele>
        <time>2022-04-06T13:45:57Z</time>
      </trkpt>
      <trkpt lat="50.20099" lon="2.09649">
        <ele>108.29</ele>
        <time>2022-04-06T13:46:06Z</time>
      </trkpt>
      <trkpt lat="50.20111" lon="2.09669">
        <ele>106.36</ele>
        <time>2022-04-06T13:46:19Z</time>
      </trkpt>
      <trkpt lat="50.20114" lon="2.09684">
        <ele>105.4</ele>
        <time>2022-04-06T13:46:27Z</time>
      </trkpt>
      <trkpt lat="50.20117" lon="2.09703">
        <ele>106.36</ele>
        <time>2022-04-06T13:46:41Z</time>
      </trkpt>
      <trkpt lat="50.20116" lon="2.09704">
        <ele>106.84</ele>
        <time>2022-04-06T13:46:54Z</time>
      </trkpt>
      <trkpt lat="50.20116" lon="2.09705">
        <ele>107.81</ele>
        <time>2022-04-06T13:47:07Z</time>
      </trkpt>
      <trkpt lat="50.20116" lon="2.09705">
        <ele>108.77</ele>
        <time>2022-04-06T13:47:20Z</time>
      </trkpt>
      <trkpt lat="50.20115" lon="2.09705">
        <ele>108.77</ele>
        <time>2022-04-06T13:47:32Z</time>
      </trkpt>
      <trkpt lat="50.20116" lon="2.09706">
        <ele>108.77</ele>
        <time>2022-04-06T13:47:42Z</time>
      </trkpt>
      <trkpt lat="50.20116" lon="2.09706">
        <ele>108.77</ele>
        <time>2022-04-06T13:47:58Z</time>
      </trkpt>
      <trkpt lat="50.20116" lon="2.09707">
        <ele>108.77</ele>
        <time>2022-04-06T13:48:09Z</time>
      </trkpt>
      <trkpt lat="50.20117" lon="2.09707">
        <ele>108.77</ele>
        <time>2022-04-06T13:48:22Z</time>
      </trkpt>
      <trkpt lat="50.20117" lon="2.09707">
        <ele>109.25</ele>
        <time>2022-04-06T13:48:37Z</time>
      </trkpt>
      <trkpt lat="50.20117" lon="2.09708">
        <ele>109.25</ele>
        <time>2022-04-06T13:48:54Z</time>
      </trkpt>
      <trkpt lat="50.2012" lon="2.09711">
        <ele>108.77</ele>
        <time>2022-04-06T13:49:07Z</time>
      </trkpt>
      <trkpt lat="50.20129" lon="2.09717">
        <ele>106.84</ele>
        <time>2022-04-06T13:49:17Z</time>
      </trkpt>
      <trkpt lat="50.20141" lon="2.09722">
        <ele>105.88</ele>
        <time>2022-04-06T13:49:29Z</time>
      </trkpt>
      <trkpt lat="50.20157" lon="2.09727">
        <ele>104.92</ele>
        <time>2022-04-06T13:49:42Z</time>
      </trkpt>
      <trkpt lat="50.20172" lon="2.0973">
        <ele>103.48</ele>
        <time>2022-04-06T13:49:55Z</time>
      </trkpt>
      <trkpt lat="50.20188" lon="2.09735">
        <ele>102.52</ele>
        <time>2022-04-06T13:50:09Z</time>
      </trkpt>
      <trkpt lat="50.20205" lon="2.09739">
        <ele>101.56</ele>
        <time>2022-04-06T13:50:23Z</time>
      </trkpt>
      <trkpt lat="50.20218" lon="2.09746">
        <ele>98.67</ele>
        <time>2022-04-06T13:50:35Z</time>
      </trkpt>
      <trkpt lat="50.20237" lon="2.09752">
        <ele>95.31</ele>
        <time>2022-04-06T13:50:50Z</time>
      </trkpt>
      <trkpt lat="50.20253" lon="2.09756">
        <ele>92.42</ele>
        <time>2022-04-06T13:51:03Z</time>
      </trkpt>
      <trkpt lat="50.20271" lon="2.09763">
        <ele>90.02</ele>
        <time>2022-04-06T13:51:17Z</time>
      </trkpt>
      <trkpt lat="50.20282" lon="2.09766">
        <ele>89.54</ele>
        <time>2022-04-06T13:51:25Z</time>
      </trkpt>
      <trkpt lat="50.20295" lon="2.09767">
        <ele>89.06</ele>
        <time>2022-04-06T13:51:35Z</time>
      </trkpt>
      <trkpt lat="50.20314" lon="2.09775">
        <ele>88.58</ele>
        <time>2022-04-06T13:51:50Z</time>
      </trkpt>
      <trkpt lat="50.20334" lon="2.09779">
        <ele>89.54</ele>
        <time>2022-04-06T13:52:04Z</time>
      </trkpt>
      <trkpt lat="50.20349" lon="2.09781">
        <ele>89.54</ele>
        <time>2022-04-06T13:52:16Z</time>
      </trkpt>
      <trkpt lat="50.20363" lon="2.09789">
        <ele>90.5</ele>
        <time>2022-04-06T13:52:27Z</time>
      </trkpt>
      <trkpt lat="50.20366" lon="2.09793">
        <ele>90.5</ele>
        <time>2022-04-06T13:52:30Z</time>
      </trkpt>
      <trkpt lat="50.20368" lon="2.09819">
        <ele>93.39</ele>
        <time>2022-04-06T13:52:42Z</time>
      </trkpt>
      <trkpt lat="50.20361" lon="2.09848">
        <ele>97.71</ele>
        <time>2022-04-06T13:52:57Z</time>
      </trkpt>
      <trkpt lat="50.20365" lon="2.09872">
        <ele>98.67</ele>
        <time>2022-04-06T13:53:09Z</time>
      </trkpt>
      <trkpt lat="50.20383" lon="2.09888">
        <ele>98.19</ele>
        <time>2022-04-06T13:53:24Z</time>
      </trkpt>
      <trkpt lat="50.20403" lon="2.09907">
        <ele>98.19</ele>
        <time>2022-04-06T13:53:41Z</time>
      </trkpt>
      <trkpt lat="50.20425" lon="2.0993">
        <ele>97.71</ele>
        <time>2022-04-06T13:54:01Z</time>
      </trkpt>
      <trkpt lat="50.20444" lon="2.09948">
        <ele>97.71</ele>
        <time>2022-04-06T13:54:17Z</time>
      </trkpt>
      <trkpt lat="50.20468" lon="2.0997">
        <ele>96.75</ele>
        <time>2022-04-06T13:54:37Z</time>
      </trkpt>
      <trkpt lat="50.20489" lon="2.09991">
        <ele>95.31</ele>
        <time>2022-04-06T13:54:56Z</time>
      </trkpt>
      <trkpt lat="50.20507" lon="2.10009">
        <ele>94.83</ele>
        <time>2022-04-06T13:55:12Z</time>
      </trkpt>
      <trkpt lat="50.20525" lon="2.10027">
        <ele>94.35</ele>
        <time>2022-04-06T13:55:29Z</time>
      </trkpt>
      <trkpt lat="50.20545" lon="2.10042">
        <ele>93.39</ele>
        <time>2022-04-06T13:55:45Z</time>
      </trkpt>
      <trkpt lat="50.20561" lon="2.10046">
        <ele>92.42</ele>
        <time>2022-04-06T13:55:58Z</time>
      </trkpt>
      <trkpt lat="50.20586" lon="2.1005">
        <ele>90.98</ele>
        <time>2022-04-06T13:56:17Z</time>
      </trkpt>
      <trkpt lat="50.2061" lon="2.10051">
        <ele>90.02</ele>
        <time>2022-04-06T13:56:35Z</time>
      </trkpt>
      <trkpt lat="50.20632" lon="2.10054">
        <ele>89.54</ele>
        <time>2022-04-06T13:56:52Z</time>
      </trkpt>
      <trkpt lat="50.20658" lon="2.10057">
        <ele>89.54</ele>
        <time>2022-04-06T13:57:12Z</time>
      </trkpt>
      <trkpt lat="50.20678" lon="2.10059">
        <ele>88.58</ele>
        <time>2022-04-06T13:57:28Z</time>
      </trkpt>
      <trkpt lat="50.20699" lon="2.10062">
        <ele>86.66</ele>
        <time>2022-04-06T13:57:44Z</time>
      </trkpt>
      <trkpt lat="50.20723" lon="2.10067">
        <ele>85.69</ele>
        <time>2022-04-06T13:58:02Z</time>
      </trkpt>
      <trkpt lat="50.20746" lon="2.10069">
        <ele>86.18</ele>
        <time>2022-04-06T13:58:19Z</time>
      </trkpt>
      <trkpt lat="50.20767" lon="2.10072">
        <ele>85.69</ele>
        <time>2022-04-06T13:58:35Z</time>
      </trkpt>
      <trkpt lat="50.20788" lon="2.10074">
        <ele>84.25</ele>
        <time>2022-04-06T13:58:51Z</time>
      </trkpt>
      <trkpt lat="50.20807" lon="2.10075">
        <ele>83.29</ele>
        <time>2022-04-06T13:59:06Z</time>
      </trkpt>
      <trkpt lat="50.20827" lon="2.10077">
        <ele>82.33</ele>
        <time>2022-04-06T13:59:22Z</time>
      </trkpt>
      <trkpt lat="50.20847" lon="2.1008">
        <ele>81.37</ele>
        <time>2022-04-06T13:59:38Z</time>
      </trkpt>
      <trkpt lat="50.20867" lon="2.10082">
        <ele>79.45</ele>
        <time>2022-04-06T13:59:54Z</time>
      </trkpt>
      <trkpt lat="50.20884" lon="2.10084">
        <ele>78</ele>
        <time>2022-04-06T14:00:08Z</time>
      </trkpt>
      <trkpt lat="50.20906" lon="2.10086">
        <ele>75.6</ele>
        <time>2022-04-06T14:00:26Z</time>
      </trkpt>
      <trkpt lat="50.2092" lon="2.10088">
        <ele>72.72</ele>
        <time>2022-04-06T14:00:39Z</time>
      </trkpt>
      <trkpt lat="50.2093" lon="2.10085">
        <ele>68.87</ele>
        <time>2022-04-06T14:00:49Z</time>
      </trkpt>
      <trkpt lat="50.20931" lon="2.10082">
        <ele>68.87</ele>
        <time>2022-04-06T14:01:06Z</time>
      </trkpt>
      <trkpt lat="50.20931" lon="2.10082">
        <ele>68.87</ele>
        <time>2022-04-06T14:01:25Z</time>
      </trkpt>
      <trkpt lat="50.20925" lon="2.10098">
        <ele>70.79</ele>
        <time>2022-04-06T14:01:36Z</time>
      </trkpt>
      <trkpt lat="50.20918" lon="2.10119">
        <ele>69.83</ele>
        <time>2022-04-06T14:01:45Z</time>
      </trkpt>
      <trkpt lat="50.20906" lon="2.10142">
        <ele>68.87</ele>
        <time>2022-04-06T14:01:58Z</time>
      </trkpt>
      <trkpt lat="50.20899" lon="2.10163">
        <ele>69.35</ele>
        <time>2022-04-06T14:02:11Z</time>
      </trkpt>
      <trkpt lat="50.2089" lon="2.1018">
        <ele>69.35</ele>
        <time>2022-04-06T14:02:23Z</time>
      </trkpt>
      <trkpt lat="50.20881" lon="2.102">
        <ele>71.76</ele>
        <time>2022-04-06T14:02:34Z</time>
      </trkpt>
      <trkpt lat="50.20879" lon="2.10204">
        <ele>71.76</ele>
        <time>2022-04-06T14:02:36Z</time>
      </trkpt>
      <trkpt lat="50.20871" lon="2.10222">
        <ele>70.79</ele>
        <time>2022-04-06T14:02:47Z</time>
      </trkpt>
      <trkpt lat="50.20863" lon="2.1024">
        <ele>69.83</ele>
        <time>2022-04-06T14:02:57Z</time>
      </trkpt>
      <trkpt lat="50.20855" lon="2.10259">
        <ele>70.79</ele>
        <time>2022-04-06T14:03:08Z</time>
      </trkpt>
      <trkpt lat="50.20845" lon="2.10283">
        <ele>71.76</ele>
        <time>2022-04-06T14:03:22Z</time>
      </trkpt>
      <trkpt lat="50.20835" lon="2.10307">
        <ele>70.79</ele>
        <time>2022-04-06T14:03:35Z</time>
      </trkpt>
      <trkpt lat="50.2082" lon="2.10342">
        <ele>69.35</ele>
        <time>2022-04-06T14:03:54Z</time>
      </trkpt>
      <trkpt lat="50.20808" lon="2.10369">
        <ele>69.35</ele>
        <time>2022-04-06T14:04:08Z</time>
      </trkpt>
      <trkpt lat="50.20798" lon="2.10398">
        <ele>70.31</ele>
        <time>2022-04-06T14:04:23Z</time>
      </trkpt>
      <trkpt lat="50.20788" lon="2.10424">
        <ele>68.39</ele>
        <time>2022-04-06T14:04:37Z</time>
      </trkpt>
      <trkpt lat="50.20782" lon="2.10444">
        <ele>68.87</ele>
        <time>2022-04-06T14:04:47Z</time>
      </trkpt>
      <trkpt lat="50.20771" lon="2.10465">
        <ele>69.35</ele>
        <time>2022-04-06T14:04:59Z</time>
      </trkpt>
      <trkpt lat="50.20761" lon="2.10489">
        <ele>68.87</ele>
        <time>2022-04-06T14:05:11Z</time>
      </trkpt>
      <trkpt lat="50.2075" lon="2.10519">
        <ele>72.72</ele>
        <time>2022-04-06T14:05:27Z</time>
      </trkpt>
      <trkpt lat="50.20742" lon="2.10539">
        <ele>71.76</ele>
        <time>2022-04-06T14:05:38Z</time>
      </trkpt>
      <trkpt lat="50.20739" lon="2.10547">
        <ele>71.76</ele>
        <time>2022-04-06T14:05:42Z</time>
      </trkpt>
      <trkpt lat="50.20731" lon="2.10568">
        <ele>71.76</ele>
        <time>2022-04-06T14:05:53Z</time>
      </trkpt>
      <trkpt lat="50.20727" lon="2.10576">
        <ele>71.76</ele>
        <time>2022-04-06T14:05:58Z</time>
      </trkpt>
      <trkpt lat="50.20718" lon="2.10598">
        <ele>72.72</ele>
        <time>2022-04-06T14:06:11Z</time>
      </trkpt>
      <trkpt lat="50.2071" lon="2.10617">
        <ele>74.16</ele>
        <time>2022-04-06T14:06:23Z</time>
      </trkpt>
      <trkpt lat="50.20703" lon="2.10627">
        <ele>74.64</ele>
        <time>2022-04-06T14:06:32Z</time>
      </trkpt>
      <trkpt lat="50.20693" lon="2.10642">
        <ele>75.12</ele>
        <time>2022-04-06T14:06:45Z</time>
      </trkpt>
      <trkpt lat="50.20683" lon="2.10657">
        <ele>76.56</ele>
        <time>2022-04-06T14:06:56Z</time>
      </trkpt>
      <trkpt lat="50.20669" lon="2.10675">
        <ele>78.48</ele>
        <time>2022-04-06T14:07:11Z</time>
      </trkpt>
      <trkpt lat="50.20653" lon="2.10689">
        <ele>79.93</ele>
        <time>2022-04-06T14:07:25Z</time>
      </trkpt>
      <trkpt lat="50.20641" lon="2.10699">
        <ele>80.41</ele>
        <time>2022-04-06T14:07:36Z</time>
      </trkpt>
      <trkpt lat="50.20625" lon="2.10713">
        <ele>83.29</ele>
        <time>2022-04-06T14:07:51Z</time>
      </trkpt>
      <trkpt lat="50.20609" lon="2.10727">
        <ele>84.25</ele>
        <time>2022-04-06T14:08:06Z</time>
      </trkpt>
      <trkpt lat="50.20595" lon="2.10743">
        <ele>84.73</ele>
        <time>2022-04-06T14:08:20Z</time>
      </trkpt>
      <trkpt lat="50.2058" lon="2.1076">
        <ele>84.25</ele>
        <time>2022-04-06T14:08:34Z</time>
      </trkpt>
      <trkpt lat="50.20565" lon="2.10777">
        <ele>84.73</ele>
        <time>2022-04-06T14:08:49Z</time>
      </trkpt>
      <trkpt lat="50.20547" lon="2.10796">
        <ele>85.21</ele>
        <time>2022-04-06T14:09:05Z</time>
      </trkpt>
      <trkpt lat="50.20529" lon="2.10809">
        <ele>86.18</ele>
        <time>2022-04-06T14:09:21Z</time>
      </trkpt>
      <trkpt lat="50.20516" lon="2.10825">
        <ele>86.66</ele>
        <time>2022-04-06T14:09:35Z</time>
      </trkpt>
      <trkpt lat="50.2051" lon="2.1085">
        <ele>85.69</ele>
        <time>2022-04-06T14:09:49Z</time>
      </trkpt>
      <trkpt lat="50.20501" lon="2.1088">
        <ele>85.69</ele>
        <time>2022-04-06T14:10:06Z</time>
      </trkpt>
      <trkpt lat="50.20492" lon="2.10906">
        <ele>87.14</ele>
        <time>2022-04-06T14:10:22Z</time>
      </trkpt>
      <trkpt lat="50.20488" lon="2.10922">
        <ele>87.62</ele>
        <time>2022-04-06T14:10:32Z</time>
      </trkpt>
      <trkpt lat="50.20502" lon="2.10933">
        <ele>88.58</ele>
        <time>2022-04-06T14:10:44Z</time>
      </trkpt>
      <trkpt lat="50.20518" lon="2.10941">
        <ele>89.06</ele>
        <time>2022-04-06T14:10:57Z</time>
      </trkpt>
      <trkpt lat="50.20532" lon="2.10948">
        <ele>89.54</ele>
        <time>2022-04-06T14:11:08Z</time>
      </trkpt>
      <trkpt lat="50.2055" lon="2.10959">
        <ele>90.5</ele>
        <time>2022-04-06T14:11:23Z</time>
      </trkpt>
      <trkpt lat="50.20565" lon="2.10969">
        <ele>91.94</ele>
        <time>2022-04-06T14:11:36Z</time>
      </trkpt>
      <trkpt lat="50.20581" lon="2.10981">
        <ele>90.98</ele>
        <time>2022-04-06T14:11:50Z</time>
      </trkpt>
      <trkpt lat="50.20597" lon="2.10991">
        <ele>90.98</ele>
        <time>2022-04-06T14:12:04Z</time>
      </trkpt>
      <trkpt lat="50.20602" lon="2.10993">
        <ele>90.98</ele>
        <time>2022-04-06T14:12:08Z</time>
      </trkpt>
      <trkpt lat="50.20619" lon="2.11005">
        <ele>90.5</ele>
        <time>2022-04-06T14:12:23Z</time>
      </trkpt>
      <trkpt lat="50.20635" lon="2.11017">
        <ele>90.5</ele>
        <time>2022-04-06T14:12:38Z</time>
      </trkpt>
      <trkpt lat="50.20655" lon="2.11028">
        <ele>91.46</ele>
        <time>2022-04-06T14:12:54Z</time>
      </trkpt>
      <trkpt lat="50.2067" lon="2.1104">
        <ele>91.94</ele>
        <time>2022-04-06T14:13:08Z</time>
      </trkpt>
      <trkpt lat="50.20688" lon="2.11053">
        <ele>91.94</ele>
        <time>2022-04-06T14:13:24Z</time>
      </trkpt>
      <trkpt lat="50.20708" lon="2.11066">
        <ele>91.94</ele>
        <time>2022-04-06T14:13:39Z</time>
      </trkpt>
      <trkpt lat="50.20712" lon="2.11069">
        <ele>91.46</ele>
        <time>2022-04-06T14:13:42Z</time>
      </trkpt>
      <trkpt lat="50.20715" lon="2.11074">
        <ele>91.46</ele>
        <time>2022-04-06T14:13:46Z</time>
      </trkpt>
      <trkpt lat="50.20735" lon="2.11086">
        <ele>93.39</ele>
        <time>2022-04-06T14:14:01Z</time>
      </trkpt>
      <trkpt lat="50.20739" lon="2.11088">
        <ele>93.39</ele>
        <time>2022-04-06T14:14:05Z</time>
      </trkpt>
      <trkpt lat="50.20744" lon="2.11095">
        <ele>92.9</ele>
        <time>2022-04-06T14:14:14Z</time>
      </trkpt>
      <trkpt lat="50.20744" lon="2.11098">
        <ele>92.9</ele>
        <time>2022-04-06T14:14:16Z</time>
      </trkpt>
      <trkpt lat="50.20742" lon="2.11101">
        <ele>92.9</ele>
        <time>2022-04-06T14:14:18Z</time>
      </trkpt>
      <trkpt lat="50.20728" lon="2.11109">
        <ele>94.35</ele>
        <time>2022-04-06T14:14:31Z</time>
      </trkpt>
      <trkpt lat="50.20708" lon="2.11123">
        <ele>95.79</ele>
        <time>2022-04-06T14:14:48Z</time>
      </trkpt>
      <trkpt lat="50.20688" lon="2.11139">
        <ele>97.71</ele>
        <time>2022-04-06T14:15:04Z</time>
      </trkpt>
      <trkpt lat="50.2067" lon="2.11153">
        <ele>99.63</ele>
        <time>2022-04-06T14:15:19Z</time>
      </trkpt>
      <trkpt lat="50.20651" lon="2.11171">
        <ele>101.56</ele>
        <time>2022-04-06T14:15:36Z</time>
      </trkpt>
      <trkpt lat="50.20633" lon="2.11186">
        <ele>100.6</ele>
        <time>2022-04-06T14:15:52Z</time>
      </trkpt>
      <trkpt lat="50.20613" lon="2.11203">
        <ele>99.15</ele>
        <time>2022-04-06T14:16:09Z</time>
      </trkpt>
      <trkpt lat="50.20594" lon="2.1122">
        <ele>99.15</ele>
        <time>2022-04-06T14:16:26Z</time>
      </trkpt>
      <trkpt lat="50.20573" lon="2.11236">
        <ele>96.27</ele>
        <time>2022-04-06T14:16:44Z</time>
      </trkpt>
      <trkpt lat="50.20555" lon="2.11251">
        <ele>94.83</ele>
        <time>2022-04-06T14:17:00Z</time>
      </trkpt>
      <trkpt lat="50.20533" lon="2.11269">
        <ele>93.39</ele>
        <time>2022-04-06T14:17:19Z</time>
      </trkpt>
      <trkpt lat="50.20513" lon="2.11287">
        <ele>92.42</ele>
        <time>2022-04-06T14:17:37Z</time>
      </trkpt>
      <trkpt lat="50.20493" lon="2.11303">
        <ele>90.98</ele>
        <time>2022-04-06T14:17:54Z</time>
      </trkpt>
      <trkpt lat="50.20471" lon="2.11321">
        <ele>90.02</ele>
        <time>2022-04-06T14:18:13Z</time>
      </trkpt>
      <trkpt lat="50.20452" lon="2.11338">
        <ele>89.06</ele>
        <time>2022-04-06T14:18:30Z</time>
      </trkpt>
      <trkpt lat="50.20435" lon="2.11352">
        <ele>89.06</ele>
        <time>2022-04-06T14:18:45Z</time>
      </trkpt>
      <trkpt lat="50.20414" lon="2.11371">
        <ele>89.06</ele>
        <time>2022-04-06T14:19:04Z</time>
      </trkpt>
      <trkpt lat="50.20395" lon="2.11386">
        <ele>87.14</ele>
        <time>2022-04-06T14:19:21Z</time>
      </trkpt>
      <trkpt lat="50.20376" lon="2.11401">
        <ele>86.66</ele>
        <time>2022-04-06T14:19:37Z</time>
      </trkpt>
      <trkpt lat="50.20354" lon="2.11419">
        <ele>84.73</ele>
        <time>2022-04-06T14:19:57Z</time>
      </trkpt>
      <trkpt lat="50.20337" lon="2.11435">
        <ele>84.73</ele>
        <time>2022-04-06T14:20:13Z</time>
      </trkpt>
      <trkpt lat="50.20327" lon="2.11443">
        <ele>84.25</ele>
        <time>2022-04-06T14:20:24Z</time>
      </trkpt>
      <trkpt lat="50.20322" lon="2.11448">
        <ele>84.73</ele>
        <time>2022-04-06T14:20:33Z</time>
      </trkpt>
      <trkpt lat="50.20322" lon="2.11458">
        <ele>84.25</ele>
        <time>2022-04-06T14:20:39Z</time>
      </trkpt>
      <trkpt lat="50.20324" lon="2.11463">
        <ele>83.77</ele>
        <time>2022-04-06T14:20:43Z</time>
      </trkpt>
      <trkpt lat="50.20335" lon="2.1147">
        <ele>83.77</ele>
        <time>2022-04-06T14:20:57Z</time>
      </trkpt>
      <trkpt lat="50.20344" lon="2.11474">
        <ele>84.73</ele>
        <time>2022-04-06T14:21:09Z</time>
      </trkpt>
      <trkpt lat="50.20352" lon="2.11476">
        <ele>84.73</ele>
        <time>2022-04-06T14:21:18Z</time>
      </trkpt>
      <trkpt lat="50.20369" lon="2.11482">
        <ele>84.73</ele>
        <time>2022-04-06T14:21:34Z</time>
      </trkpt>
      <trkpt lat="50.20391" lon="2.11485">
        <ele>84.73</ele>
        <time>2022-04-06T14:21:50Z</time>
      </trkpt>
      <trkpt lat="50.2042" lon="2.11479">
        <ele>83.77</ele>
        <time>2022-04-06T14:22:11Z</time>
      </trkpt>
      <trkpt lat="50.20442" lon="2.11474">
        <ele>82.81</ele>
        <time>2022-04-06T14:22:28Z</time>
      </trkpt>
      <trkpt lat="50.20459" lon="2.11471">
        <ele>80.41</ele>
        <time>2022-04-06T14:22:41Z</time>
      </trkpt>
      <trkpt lat="50.20479" lon="2.11469">
        <ele>78.97</ele>
        <time>2022-04-06T14:22:56Z</time>
      </trkpt>
      <trkpt lat="50.20497" lon="2.11468">
        <ele>78</ele>
        <time>2022-04-06T14:23:10Z</time>
      </trkpt>
      <trkpt lat="50.20514" lon="2.11469">
        <ele>78</ele>
        <time>2022-04-06T14:23:24Z</time>
      </trkpt>
      <trkpt lat="50.20532" lon="2.11472">
        <ele>78.97</ele>
        <time>2022-04-06T14:23:39Z</time>
      </trkpt>
      <trkpt lat="50.2055" lon="2.11473">
        <ele>80.41</ele>
        <time>2022-04-06T14:23:54Z</time>
      </trkpt>
      <trkpt lat="50.20569" lon="2.11476">
        <ele>81.85</ele>
        <time>2022-04-06T14:24:09Z</time>
      </trkpt>
      <trkpt lat="50.20585" lon="2.11478">
        <ele>83.29</ele>
        <time>2022-04-06T14:24:23Z</time>
      </trkpt>
      <trkpt lat="50.20601" lon="2.11482">
        <ele>83.29</ele>
        <time>2022-04-06T14:24:37Z</time>
      </trkpt>
      <trkpt lat="50.20616" lon="2.11485">
        <ele>83.29</ele>
        <time>2022-04-06T14:24:50Z</time>
      </trkpt>
      <trkpt lat="50.20629" lon="2.1149">
        <ele>84.25</ele>
        <time>2022-04-06T14:25:01Z</time>
      </trkpt>
      <trkpt lat="50.20648" lon="2.11494">
        <ele>86.18</ele>
        <time>2022-04-06T14:25:15Z</time>
      </trkpt>
      <trkpt lat="50.20669" lon="2.11499">
        <ele>87.14</ele>
        <time>2022-04-06T14:25:32Z</time>
      </trkpt>
      <trkpt lat="50.20686" lon="2.11503">
        <ele>87.62</ele>
        <time>2022-04-06T14:25:45Z</time>
      </trkpt>
      <trkpt lat="50.20706" lon="2.11507">
        <ele>87.62</ele>
        <time>2022-04-06T14:26:01Z</time>
      </trkpt>
      <trkpt lat="50.20724" lon="2.11511">
        <ele>88.1</ele>
        <time>2022-04-06T14:26:16Z</time>
      </trkpt>
      <trkpt lat="50.20742" lon="2.11514">
        <ele>88.58</ele>
        <time>2022-04-06T14:26:30Z</time>
      </trkpt>
      <trkpt lat="50.2076" lon="2.11518">
        <ele>89.06</ele>
        <time>2022-04-06T14:26:44Z</time>
      </trkpt>
      <trkpt lat="50.20781" lon="2.11522">
        <ele>89.54</ele>
        <time>2022-04-06T14:27:01Z</time>
      </trkpt>
      <trkpt lat="50.20796" lon="2.11525">
        <ele>89.06</ele>
        <time>2022-04-06T14:27:14Z</time>
      </trkpt>
      <trkpt lat="50.20811" lon="2.11529">
        <ele>90.02</ele>
        <time>2022-04-06T14:27:28Z</time>
      </trkpt>
      <trkpt lat="50.20829" lon="2.11532">
        <ele>90.5</ele>
        <time>2022-04-06T14:27:43Z</time>
      </trkpt>
      <trkpt lat="50.20848" lon="2.11537">
        <ele>90.98</ele>
        <time>2022-04-06T14:27:59Z</time>
      </trkpt>
      <trkpt lat="50.20865" lon="2.11541">
        <ele>91.46</ele>
        <time>2022-04-06T14:28:13Z</time>
      </trkpt>
      <trkpt lat="50.20882" lon="2.11544">
        <ele>91.46</ele>
        <time>2022-04-06T14:28:27Z</time>
      </trkpt>
      <trkpt lat="50.20899" lon="2.11549">
        <ele>91.46</ele>
        <time>2022-04-06T14:28:42Z</time>
      </trkpt>
      <trkpt lat="50.20917" lon="2.11553">
        <ele>90.5</ele>
        <time>2022-04-06T14:28:57Z</time>
      </trkpt>
      <trkpt lat="50.20936" lon="2.11558">
        <ele>90.98</ele>
        <time>2022-04-06T14:29:12Z</time>
      </trkpt>
      <trkpt lat="50.20953" lon="2.11563">
        <ele>91.46</ele>
        <time>2022-04-06T14:29:26Z</time>
      </trkpt>
      <trkpt lat="50.20971" lon="2.11568">
        <ele>92.42</ele>
        <time>2022-04-06T14:29:40Z</time>
      </trkpt>
      <trkpt lat="50.20991" lon="2.11574">
        <ele>92.9</ele>
        <time>2022-04-06T14:29:56Z</time>
      </trkpt>
      <trkpt lat="50.21015" lon="2.11583">
        <ele>93.39</ele>
        <time>2022-04-06T14:30:15Z</time>
      </trkpt>
      <trkpt lat="50.21033" lon="2.1159">
        <ele>92.9</ele>
        <time>2022-04-06T14:30:30Z</time>
      </trkpt>
      <trkpt lat="50.21049" lon="2.11596">
        <ele>92.42</ele>
        <time>2022-04-06T14:30:43Z</time>
      </trkpt>
      <trkpt lat="50.21068" lon="2.11603">
        <ele>92.9</ele>
        <time>2022-04-06T14:30:58Z</time>
      </trkpt>
      <trkpt lat="50.2109" lon="2.11612">
        <ele>93.87</ele>
        <time>2022-04-06T14:31:15Z</time>
      </trkpt>
      <trkpt lat="50.21101" lon="2.11615">
        <ele>93.87</ele>
        <time>2022-04-06T14:31:27Z</time>
      </trkpt>
      <trkpt lat="50.21109" lon="2.11619">
        <ele>93.87</ele>
        <time>2022-04-06T14:31:37Z</time>
      </trkpt>
      <trkpt lat="50.21127" lon="2.11624">
        <ele>93.39</ele>
        <time>2022-04-06T14:31:51Z</time>
      </trkpt>
      <trkpt lat="50.21144" lon="2.11629">
        <ele>92.42</ele>
        <time>2022-04-06T14:32:05Z</time>
      </trkpt>
      <trkpt lat="50.21162" lon="2.11634">
        <ele>91.46</ele>
        <time>2022-04-06T14:32:20Z</time>
      </trkpt>
      <trkpt lat="50.21178" lon="2.11638">
        <ele>91.46</ele>
        <time>2022-04-06T14:32:33Z</time>
      </trkpt>
      <trkpt lat="50.21193" lon="2.1164">
        <ele>91.94</ele>
        <time>2022-04-06T14:32:46Z</time>
      </trkpt>
      <trkpt lat="50.21199" lon="2.11639">
        <ele>92.42</ele>
        <time>2022-04-06T14:32:58Z</time>
      </trkpt>
      <trkpt lat="50.21199" lon="2.11639">
        <ele>93.39</ele>
        <time>2022-04-06T14:33:16Z</time>
      </trkpt>
      <trkpt lat="50.212" lon="2.11639">
        <ele>93.87</ele>
        <time>2022-04-06T14:33:21Z</time>
      </trkpt>
      <trkpt lat="50.21215" lon="2.11644">
        <ele>93.87</ele>
        <time>2022-04-06T14:33:36Z</time>
      </trkpt>
      <trkpt lat="50.21233" lon="2.11647">
        <ele>94.35</ele>
        <time>2022-04-06T14:33:51Z</time>
      </trkpt>
      <trkpt lat="50.2125" lon="2.11647">
        <ele>94.35</ele>
        <time>2022-04-06T14:34:05Z</time>
      </trkpt>
      <trkpt lat="50.21274" lon="2.1165">
        <ele>94.83</ele>
        <time>2022-04-06T14:34:23Z</time>
      </trkpt>
      <trkpt lat="50.21296" lon="2.11651">
        <ele>94.35</ele>
        <time>2022-04-06T14:34:40Z</time>
      </trkpt>
      <trkpt lat="50.21315" lon="2.11654">
        <ele>94.35</ele>
        <time>2022-04-06T14:34:55Z</time>
      </trkpt>
      <trkpt lat="50.21334" lon="2.11656">
        <ele>93.87</ele>
        <time>2022-04-06T14:35:09Z</time>
      </trkpt>
      <trkpt lat="50.21355" lon="2.11658">
        <ele>94.35</ele>
        <time>2022-04-06T14:35:25Z</time>
      </trkpt>
      <trkpt lat="50.21375" lon="2.11659">
        <ele>93.87</ele>
        <time>2022-04-06T14:35:40Z</time>
      </trkpt>
      <trkpt lat="50.21397" lon="2.11659">
        <ele>92.9</ele>
        <time>2022-04-06T14:35:58Z</time>
      </trkpt>
      <trkpt lat="50.21416" lon="2.11658">
        <ele>91.94</ele>
        <time>2022-04-06T14:36:12Z</time>
      </trkpt>
      <trkpt lat="50.21432" lon="2.11658">
        <ele>90.98</ele>
        <time>2022-04-06T14:36:25Z</time>
      </trkpt>
      <trkpt lat="50.2145" lon="2.11658">
        <ele>90.5</ele>
        <time>2022-04-06T14:36:39Z</time>
      </trkpt>
      <trkpt lat="50.21471" lon="2.11659">
        <ele>90.5</ele>
        <time>2022-04-06T14:36:55Z</time>
      </trkpt>
      <trkpt lat="50.2149" lon="2.11659">
        <ele>89.54</ele>
        <time>2022-04-06T14:37:10Z</time>
      </trkpt>
      <trkpt lat="50.21511" lon="2.11658">
        <ele>87.62</ele>
        <time>2022-04-06T14:37:26Z</time>
      </trkpt>
      <trkpt lat="50.21531" lon="2.11659">
        <ele>85.69</ele>
        <time>2022-04-06T14:37:42Z</time>
      </trkpt>
      <trkpt lat="50.2155" lon="2.11662">
        <ele>84.73</ele>
        <time>2022-04-06T14:37:58Z</time>
      </trkpt>
      <trkpt lat="50.21568" lon="2.11666">
        <ele>82.81</ele>
        <time>2022-04-06T14:38:13Z</time>
      </trkpt>
      <trkpt lat="50.21587" lon="2.11666">
        <ele>80.41</ele>
        <time>2022-04-06T14:38:27Z</time>
      </trkpt>
      <trkpt lat="50.21606" lon="2.11665">
        <ele>76.56</ele>
        <time>2022-04-06T14:38:42Z</time>
      </trkpt>
      <trkpt lat="50.21622" lon="2.11666">
        <ele>72.24</ele>
        <time>2022-04-06T14:38:56Z</time>
      </trkpt>
      <trkpt lat="50.21644" lon="2.11672">
        <ele>68.39</ele>
        <time>2022-04-06T14:39:14Z</time>
      </trkpt>
      <trkpt lat="50.21663" lon="2.11679">
        <ele>70.31</ele>
        <time>2022-04-06T14:39:30Z</time>
      </trkpt>
      <trkpt lat="50.21681" lon="2.11683">
        <ele>69.35</ele>
        <time>2022-04-06T14:39:45Z</time>
      </trkpt>
      <trkpt lat="50.21698" lon="2.11684">
        <ele>64.55</ele>
        <time>2022-04-06T14:39:59Z</time>
      </trkpt>
      <trkpt lat="50.21704" lon="2.11686">
        <ele>65.99</ele>
        <time>2022-04-06T14:40:03Z</time>
      </trkpt>
      <trkpt lat="50.21723" lon="2.1169">
        <ele>66.95</ele>
        <time>2022-04-06T14:40:17Z</time>
      </trkpt>
      <trkpt lat="50.2174" lon="2.11693">
        <ele>68.39</ele>
        <time>2022-04-06T14:40:30Z</time>
      </trkpt>
      <trkpt lat="50.21758" lon="2.11696">
        <ele>65.99</ele>
        <time>2022-04-06T14:40:44Z</time>
      </trkpt>
      <trkpt lat="50.21774" lon="2.11694">
        <ele>62.62</ele>
        <time>2022-04-06T14:40:57Z</time>
      </trkpt>
      <trkpt lat="50.21789" lon="2.11685">
        <ele>59.74</ele>
        <time>2022-04-06T14:41:11Z</time>
      </trkpt>
      <trkpt lat="50.21798" lon="2.11672">
        <ele>57.82</ele>
        <time>2022-04-06T14:41:21Z</time>
      </trkpt>
      <trkpt lat="50.21812" lon="2.1166">
        <ele>54.93</ele>
        <time>2022-04-06T14:41:35Z</time>
      </trkpt>
      <trkpt lat="50.21825" lon="2.11651">
        <ele>52.53</ele>
        <time>2022-04-06T14:41:46Z</time>
      </trkpt>
      <trkpt lat="50.21834" lon="2.11646">
        <ele>50.13</ele>
        <time>2022-04-06T14:41:53Z</time>
      </trkpt>
      <trkpt lat="50.21854" lon="2.1164">
        <ele>47.24</ele>
        <time>2022-04-06T14:42:08Z</time>
      </trkpt>
      <trkpt lat="50.21875" lon="2.1164">
        <ele>45.8</ele>
        <time>2022-04-06T14:42:23Z</time>
      </trkpt>
      <trkpt lat="50.21893" lon="2.11643">
        <ele>42.92</ele>
        <time>2022-04-06T14:42:37Z</time>
      </trkpt>
      <trkpt lat="50.2191" lon="2.11642">
        <ele>36.67</ele>
        <time>2022-04-06T14:42:51Z</time>
      </trkpt>
      <trkpt lat="50.21924" lon="2.11642">
        <ele>30.42</ele>
        <time>2022-04-06T14:43:02Z</time>
      </trkpt>
      <trkpt lat="50.2194" lon="2.11642">
        <ele>25.61</ele>
        <time>2022-04-06T14:43:15Z</time>
      </trkpt>
      <trkpt lat="50.21956" lon="2.11645">
        <ele>20.32</ele>
        <time>2022-04-06T14:43:28Z</time>
      </trkpt>
      <trkpt lat="50.2197" lon="2.11643">
        <ele>16.48</ele>
        <time>2022-04-06T14:43:41Z</time>
      </trkpt>
      <trkpt lat="50.21988" lon="2.11637">
        <ele>16.48</ele>
        <time>2022-04-06T14:43:54Z</time>
      </trkpt>
      <trkpt lat="50.2201" lon="2.11631">
        <ele>20.32</ele>
        <time>2022-04-06T14:44:08Z</time>
      </trkpt>
      <trkpt lat="50.22026" lon="2.11625">
        <ele>19.84</ele>
        <time>2022-04-06T14:44:21Z</time>
      </trkpt>
      <trkpt lat="50.22049" lon="2.11622">
        <ele>18.88</ele>
        <time>2022-04-06T14:44:38Z</time>
      </trkpt>
      <trkpt lat="50.22075" lon="2.11616">
        <ele>27.05</ele>
        <time>2022-04-06T14:44:55Z</time>
      </trkpt>
      <trkpt lat="50.22082" lon="2.11615">
        <ele>29.46</ele>
        <time>2022-04-06T14:45:00Z</time>
      </trkpt>
      <trkpt lat="50.22087" lon="2.11612">
        <ele>30.9</ele>
        <time>2022-04-06T14:45:04Z</time>
      </trkpt>
      <trkpt lat="50.22089" lon="2.11611">
        <ele>31.38</ele>
        <time>2022-04-06T14:45:09Z</time>
      </trkpt>
      <trkpt lat="50.22095" lon="2.1161">
        <ele>32.34</ele>
        <time>2022-04-06T14:45:19Z</time>
      </trkpt>
      <trkpt lat="50.22095" lon="2.1161">
        <ele>33.78</ele>
        <time>2022-04-06T14:45:40Z</time>
      </trkpt>
      <trkpt lat="50.22094" lon="2.1161">
        <ele>33.78</ele>
        <time>2022-04-06T14:45:46Z</time>
      </trkpt>
      <trkpt lat="50.22115" lon="2.11619">
        <ele>32.82</ele>
        <time>2022-04-06T14:46:02Z</time>
      </trkpt>
      <trkpt lat="50.22138" lon="2.11628">
        <ele>30.9</ele>
        <time>2022-04-06T14:46:19Z</time>
      </trkpt>
      <trkpt lat="50.22161" lon="2.11638">
        <ele>30.42</ele>
        <time>2022-04-06T14:46:37Z</time>
      </trkpt>
      <trkpt lat="50.22184" lon="2.11648">
        <ele>31.38</ele>
        <time>2022-04-06T14:46:55Z</time>
      </trkpt>
      <trkpt lat="50.22211" lon="2.1166">
        <ele>31.86</ele>
        <time>2022-04-06T14:47:14Z</time>
      </trkpt>
      <trkpt lat="50.22229" lon="2.11668">
        <ele>31.86</ele>
        <time>2022-04-06T14:47:29Z</time>
      </trkpt>
      <trkpt lat="50.22233" lon="2.11669">
        <ele>32.34</ele>
        <time>2022-04-06T14:47:32Z</time>
      </trkpt>
      <trkpt lat="50.22246" lon="2.11656">
        <ele>33.3</ele>
        <time>2022-04-06T14:47:45Z</time>
      </trkpt>
      <trkpt lat="50.22257" lon="2.1164">
        <ele>33.78</ele>
        <time>2022-04-06T14:47:58Z</time>
      </trkpt>
      <trkpt lat="50.22269" lon="2.11619">
        <ele>34.26</ele>
        <time>2022-04-06T14:48:13Z</time>
      </trkpt>
      <trkpt lat="50.22281" lon="2.116">
        <ele>34.74</ele>
        <time>2022-04-06T14:48:27Z</time>
      </trkpt>
      <trkpt lat="50.22294" lon="2.1158">
        <ele>34.26</ele>
        <time>2022-04-06T14:48:41Z</time>
      </trkpt>
      <trkpt lat="50.22305" lon="2.11558">
        <ele>33.3</ele>
        <time>2022-04-06T14:48:55Z</time>
      </trkpt>
      <trkpt lat="50.22314" lon="2.11543">
        <ele>31.86</ele>
        <time>2022-04-06T14:49:06Z</time>
      </trkpt>
      <trkpt lat="50.22325" lon="2.11522">
        <ele>32.34</ele>
        <time>2022-04-06T14:49:19Z</time>
      </trkpt>
      <trkpt lat="50.22341" lon="2.11497">
        <ele>32.34</ele>
        <time>2022-04-06T14:49:35Z</time>
      </trkpt>
      <trkpt lat="50.22354" lon="2.11473">
        <ele>32.82</ele>
        <time>2022-04-06T14:49:50Z</time>
      </trkpt>
      <trkpt lat="50.22367" lon="2.11452">
        <ele>31.86</ele>
        <time>2022-04-06T14:50:04Z</time>
      </trkpt>
      <trkpt lat="50.2238" lon="2.1143">
        <ele>31.86</ele>
        <time>2022-04-06T14:50:19Z</time>
      </trkpt>
      <trkpt lat="50.22397" lon="2.11404">
        <ele>32.34</ele>
        <time>2022-04-06T14:50:36Z</time>
      </trkpt>
      <trkpt lat="50.22411" lon="2.11377">
        <ele>32.34</ele>
        <time>2022-04-06T14:50:53Z</time>
      </trkpt>
      <trkpt lat="50.22425" lon="2.1135">
        <ele>32.34</ele>
        <time>2022-04-06T14:51:10Z</time>
      </trkpt>
      <trkpt lat="50.2244" lon="2.11326">
        <ele>31.86</ele>
        <time>2022-04-06T14:51:26Z</time>
      </trkpt>
      <trkpt lat="50.22453" lon="2.11307">
        <ele>31.86</ele>
        <time>2022-04-06T14:51:40Z</time>
      </trkpt>
      <trkpt lat="50.22458" lon="2.11307">
        <ele>32.34</ele>
        <time>2022-04-06T14:51:44Z</time>
      </trkpt>
      <trkpt lat="50.2247" lon="2.11324">
        <ele>30.9</ele>
        <time>2022-04-06T14:51:57Z</time>
      </trkpt>
      <trkpt lat="50.22476" lon="2.11333">
        <ele>29.46</ele>
        <time>2022-04-06T14:52:03Z</time>
      </trkpt>
      <trkpt lat="50.22489" lon="2.11354">
        <ele>28.02</ele>
        <time>2022-04-06T14:52:17Z</time>
      </trkpt>
      <trkpt lat="50.225" lon="2.11375">
        <ele>27.53</ele>
        <time>2022-04-06T14:52:30Z</time>
      </trkpt>
      <trkpt lat="50.22509" lon="2.11398">
        <ele>26.09</ele>
        <time>2022-04-06T14:52:44Z</time>
      </trkpt>
      <trkpt lat="50.2252" lon="2.1142">
        <ele>26.57</ele>
        <time>2022-04-06T14:52:58Z</time>
      </trkpt>
      <trkpt lat="50.22532" lon="2.11441">
        <ele>26.09</ele>
        <time>2022-04-06T14:53:12Z</time>
      </trkpt>
      <trkpt lat="50.22534" lon="2.11443">
        <ele>26.09</ele>
        <time>2022-04-06T14:53:14Z</time>
      </trkpt>
      <trkpt lat="50.22545" lon="2.1146">
        <ele>26.09</ele>
        <time>2022-04-06T14:53:26Z</time>
      </trkpt>
      <trkpt lat="50.22556" lon="2.1148">
        <ele>26.57</ele>
        <time>2022-04-06T14:53:39Z</time>
      </trkpt>
      <trkpt lat="50.22558" lon="2.11485">
        <ele>26.57</ele>
        <time>2022-04-06T14:53:43Z</time>
      </trkpt>
      <trkpt lat="50.22563" lon="2.11503">
        <ele>27.05</ele>
        <time>2022-04-06T14:53:53Z</time>
      </trkpt>
      <trkpt lat="50.22568" lon="2.11529">
        <ele>27.05</ele>
        <time>2022-04-06T14:54:06Z</time>
      </trkpt>
      <trkpt lat="50.22569" lon="2.11535">
        <ele>26.57</ele>
        <time>2022-04-06T14:54:09Z</time>
      </trkpt>
      <trkpt lat="50.22573" lon="2.11562">
        <ele>23.69</ele>
        <time>2022-04-06T14:54:23Z</time>
      </trkpt>
      <trkpt lat="50.22577" lon="2.11586">
        <ele>24.65</ele>
        <time>2022-04-06T14:54:35Z</time>
      </trkpt>
      <trkpt lat="50.22581" lon="2.1161">
        <ele>24.65</ele>
        <time>2022-04-06T14:54:47Z</time>
      </trkpt>
      <trkpt lat="50.22582" lon="2.11624">
        <ele>24.65</ele>
        <time>2022-04-06T14:54:55Z</time>
      </trkpt>
      <trkpt lat="50.22586" lon="2.11651">
        <ele>22.25</ele>
        <time>2022-04-06T14:55:08Z</time>
      </trkpt>
      <trkpt lat="50.22588" lon="2.11676">
        <ele>24.65</ele>
        <time>2022-04-06T14:55:20Z</time>
      </trkpt>
      <trkpt lat="50.22589" lon="2.11685">
        <ele>25.61</ele>
        <time>2022-04-06T14:55:24Z</time>
      </trkpt>
      <trkpt lat="50.22595" lon="2.11715">
        <ele>26.09</ele>
        <time>2022-04-06T14:55:39Z</time>
      </trkpt>
      <trkpt lat="50.22597" lon="2.1174">
        <ele>26.09</ele>
        <time>2022-04-06T14:55:52Z</time>
      </trkpt>
      <trkpt lat="50.22604" lon="2.11762">
        <ele>28.02</ele>
        <time>2022-04-06T14:56:05Z</time>
      </trkpt>
      <trkpt lat="50.2261" lon="2.11764">
        <ele>29.94</ele>
        <time>2022-04-06T14:56:17Z</time>
      </trkpt>
      <trkpt lat="50.22611" lon="2.11765">
        <ele>31.38</ele>
        <time>2022-04-06T14:56:33Z</time>
      </trkpt>
      <trkpt lat="50.22613" lon="2.11769">
        <ele>31.86</ele>
        <time>2022-04-06T14:56:37Z</time>
      </trkpt>
      <trkpt lat="50.22616" lon="2.11774">
        <ele>31.38</ele>
        <time>2022-04-06T14:56:41Z</time>
      </trkpt>
      <trkpt lat="50.22635" lon="2.11776">
        <ele>31.86</ele>
        <time>2022-04-06T14:56:57Z</time>
      </trkpt>
      <trkpt lat="50.22651" lon="2.11783">
        <ele>30.42</ele>
        <time>2022-04-06T14:57:10Z</time>
      </trkpt>
      <trkpt lat="50.22661" lon="2.11798">
        <ele>29.46</ele>
        <time>2022-04-06T14:57:21Z</time>
      </trkpt>
      <trkpt lat="50.22677" lon="2.11819">
        <ele>31.86</ele>
        <time>2022-04-06T14:57:37Z</time>
      </trkpt>
      <trkpt lat="50.22678" lon="2.11835">
        <ele>30.9</ele>
        <time>2022-04-06T14:57:49Z</time>
      </trkpt>
      <trkpt lat="50.22678" lon="2.11838">
        <ele>29.94</ele>
        <time>2022-04-06T14:57:52Z</time>
      </trkpt>
      <trkpt lat="50.22668" lon="2.11862">
        <ele>30.9</ele>
        <time>2022-04-06T14:58:08Z</time>
      </trkpt>
      <trkpt lat="50.22661" lon="2.11876">
        <ele>31.86</ele>
        <time>2022-04-06T14:58:18Z</time>
      </trkpt>
      <trkpt lat="50.22662" lon="2.11898">
        <ele>30.9</ele>
        <time>2022-04-06T14:58:30Z</time>
      </trkpt>
      <trkpt lat="50.22668" lon="2.11924">
        <ele>31.38</ele>
        <time>2022-04-06T14:58:44Z</time>
      </trkpt>
      <trkpt lat="50.22669" lon="2.11935">
        <ele>31.86</ele>
        <time>2022-04-06T14:58:51Z</time>
      </trkpt>
      <trkpt lat="50.22671" lon="2.11942">
        <ele>32.34</ele>
        <time>2022-04-06T14:58:55Z</time>
      </trkpt>
      <trkpt lat="50.22676" lon="2.11967">
        <ele>32.82</ele>
        <time>2022-04-06T14:59:08Z</time>
      </trkpt>
      <trkpt lat="50.22681" lon="2.11973">
        <ele>34.26</ele>
        <time>2022-04-06T14:59:20Z</time>
      </trkpt>
    </trkseg>
  </trk>
</gpx>